<?xml version="1.0" encoding="UTF-8" standalone="no" ?>
<gpx xmlns="http://www.topografix.com/GPX/1/1" xmlns:xsi="http://www.w3.org/2001/XMLSchema-instance" xsi:schemaLocation="http://www.topografix.com/GPX/1/1 http://www.topografix.com/GPX/1/1/gpx.xsd" version="1.1" creator="VisuGPX - https://www.visugpx.com">
  <metadata>
    <name>Arenberg</name>
  </metadata>
  <trk>
    <name><![CDATA[Arenberg]]></name>
    <trkseg>
      <trkpt lat="50.50352" lon="3.46447">
        <ele>20.783161</ele>
        <time>2020-10-01T15:20:20.577Z</time>
      </trkpt>
      <trkpt lat="50.5034" lon="3.46438">
        <ele>20.783161</ele>
        <time>2020-10-01T15:20:22.645Z</time>
      </trkpt>
      <trkpt lat="50.50316" lon="3.46422">
        <ele>20.783161</ele>
        <time>2020-10-01T15:20:26.822Z</time>
      </trkpt>
      <trkpt lat="50.50313" lon="3.46411">
        <ele>20.783161</ele>
        <time>2020-10-01T15:20:27.905Z</time>
      </trkpt>
      <trkpt lat="50.50317" lon="3.46374">
        <ele>20.783161</ele>
        <time>2020-10-01T15:20:31.612Z</time>
      </trkpt>
      <trkpt lat="50.50325" lon="3.46304">
        <ele>20.725729</ele>
        <time>2020-10-01T15:20:38.229Z</time>
      </trkpt>
      <trkpt lat="50.50335" lon="3.46236">
        <ele>20.629763</ele>
        <time>2020-10-01T15:20:44.695Z</time>
      </trkpt>
      <trkpt lat="50.50345" lon="3.46155">
        <ele>20.517431</ele>
        <time>2020-10-01T15:20:52.071Z</time>
      </trkpt>
      <trkpt lat="50.50361" lon="3.46074">
        <ele>20.401887</ele>
        <time>2020-10-01T15:20:59.344Z</time>
      </trkpt>
      <trkpt lat="50.5041" lon="3.45851">
        <ele>19.736483</ele>
        <time>2020-10-01T15:21:19.392Z</time>
      </trkpt>
      <trkpt lat="50.50424" lon="3.45772">
        <ele>19.502082</ele>
        <time>2020-10-01T15:21:26.452Z</time>
      </trkpt>
      <trkpt lat="50.50433" lon="3.4572">
        <ele>19.344993</ele>
        <time>2020-10-01T15:21:31.145Z</time>
      </trkpt>
      <trkpt lat="50.50436" lon="3.45642">
        <ele>19.120277</ele>
        <time>2020-10-01T15:21:37.928Z</time>
      </trkpt>
      <trkpt lat="50.50437" lon="3.45631">
        <ele>19.088324</ele>
        <time>2020-10-01T15:21:38.761Z</time>
      </trkpt>
      <trkpt lat="50.5044" lon="3.45588">
        <ele>18.961976</ele>
        <time>2020-10-01T15:21:42.720Z</time>
      </trkpt>
      <trkpt lat="50.50441" lon="3.45573">
        <ele>18.917461</ele>
        <time>2020-10-01T15:21:43.915Z</time>
      </trkpt>
      <trkpt lat="50.50441" lon="3.45568">
        <ele>18.902589</ele>
        <time>2020-10-01T15:21:44.358Z</time>
      </trkpt>
      <trkpt lat="50.50443" lon="3.45552">
        <ele>18.855278</ele>
        <time>2020-10-01T15:21:45.790Z</time>
      </trkpt>
      <trkpt lat="50.50448" lon="3.45508">
        <ele>18.717261</ele>
        <time>2020-10-01T15:21:49.341Z</time>
      </trkpt>
      <trkpt lat="50.50447" lon="3.4549">
        <ele>18.651671</ele>
        <time>2020-10-01T15:21:50.926Z</time>
      </trkpt>
      <trkpt lat="50.50444" lon="3.45482">
        <ele>18.618194</ele>
        <time>2020-10-01T15:21:51.730Z</time>
      </trkpt>
      <trkpt lat="50.50416" lon="3.45464">
        <ele>18.452764</ele>
        <time>2020-10-01T15:21:55.607Z</time>
      </trkpt>
      <trkpt lat="50.50407" lon="3.45459">
        <ele>18.397297</ele>
        <time>2020-10-01T15:21:56.935Z</time>
      </trkpt>
      <trkpt lat="50.50355" lon="3.45425">
        <ele>18.085921</ele>
        <time>2020-10-01T15:22:04.417Z</time>
      </trkpt>
      <trkpt lat="50.50341" lon="3.45413">
        <ele>17.996978</ele>
        <time>2020-10-01T15:22:06.595Z</time>
      </trkpt>
      <trkpt lat="50.5031" lon="3.45386">
        <ele>17.799991</ele>
        <time>2020-10-01T15:22:11.254Z</time>
      </trkpt>
      <trkpt lat="50.50229" lon="3.45322">
        <ele>17.582475</ele>
        <time>2020-10-01T15:22:22.698Z</time>
      </trkpt>
      <trkpt lat="50.50193" lon="3.45294">
        <ele>17.4943</ele>
        <time>2020-10-01T15:22:28.708Z</time>
      </trkpt>
      <trkpt lat="50.50142" lon="3.45258">
        <ele>17.374623</ele>
        <time>2020-10-01T15:22:37.991Z</time>
      </trkpt>
      <trkpt lat="50.5013" lon="3.45249">
        <ele>17.376326</ele>
        <time>2020-10-01T15:22:40.008Z</time>
      </trkpt>
      <trkpt lat="50.50092" lon="3.45227">
        <ele>17.381497</ele>
        <time>2020-10-01T15:22:46.516Z</time>
      </trkpt>
      <trkpt lat="50.50084" lon="3.45223">
        <ele>17.382589</ele>
        <time>2020-10-01T15:22:47.835Z</time>
      </trkpt>
      <trkpt lat="50.50052" lon="3.45203">
        <ele>17.387045</ele>
        <time>2020-10-01T15:22:52.827Z</time>
      </trkpt>
      <trkpt lat="50.50051" lon="3.45202">
        <ele>17.387259</ele>
        <time>2020-10-01T15:22:53.075Z</time>
      </trkpt>
      <trkpt lat="50.50044" lon="3.45199">
        <ele>17.388164</ele>
        <time>2020-10-01T15:22:54.100Z</time>
      </trkpt>
      <trkpt lat="50.50005" lon="3.45189">
        <ele>17.393268</ele>
        <time>2020-10-01T15:22:59.713Z</time>
      </trkpt>
      <trkpt lat="50.49999" lon="3.45188">
        <ele>17.394088</ele>
        <time>2020-10-01T15:23:00.581Z</time>
      </trkpt>
      <trkpt lat="50.49974" lon="3.45177">
        <ele>17.397317</ele>
        <time>2020-10-01T15:23:04.371Z</time>
      </trkpt>
      <trkpt lat="50.49958" lon="3.45159">
        <ele>17.259617</ele>
        <time>2020-10-01T15:23:07.182Z</time>
      </trkpt>
      <trkpt lat="50.49943" lon="3.45125">
        <ele>17.066777</ele>
        <time>2020-10-01T15:23:10.834Z</time>
      </trkpt>
      <trkpt lat="50.49935" lon="3.45106">
        <ele>16.956278</ele>
        <time>2020-10-01T15:23:12.812Z</time>
      </trkpt>
      <trkpt lat="50.49874" lon="3.44964">
        <ele>16.15183</ele>
        <time>2020-10-01T15:23:26.048Z</time>
      </trkpt>
      <trkpt lat="50.49867" lon="3.44946">
        <ele>16.061308</ele>
        <time>2020-10-01T15:23:27.649Z</time>
      </trkpt>
      <trkpt lat="50.49864" lon="3.44939">
        <ele>16.047563</ele>
        <time>2020-10-01T15:23:28.291Z</time>
      </trkpt>
      <trkpt lat="50.49853" lon="3.44914">
        <ele>15.997599</ele>
        <time>2020-10-01T15:23:30.711Z</time>
      </trkpt>
      <trkpt lat="50.49851" lon="3.44909">
        <ele>15.988134</ele>
        <time>2020-10-01T15:23:31.186Z</time>
      </trkpt>
      <trkpt lat="50.49844" lon="3.44889">
        <ele>15.94919</ele>
        <time>2020-10-01T15:23:33.078Z</time>
      </trkpt>
      <trkpt lat="50.49799" lon="3.44762">
        <ele>15.710862</ele>
        <time>2020-10-01T15:23:46.108Z</time>
      </trkpt>
      <trkpt lat="50.49798" lon="3.44759">
        <ele>15.705581</ele>
        <time>2020-10-01T15:23:46.352Z</time>
      </trkpt>
      <trkpt lat="50.49776" lon="3.4469">
        <ele>15.679902</ele>
        <time>2020-10-01T15:23:54.347Z</time>
      </trkpt>
      <trkpt lat="50.49754" lon="3.44626">
        <ele>16.082175</ele>
        <time>2020-10-01T15:24:02.087Z</time>
      </trkpt>
      <trkpt lat="50.49735" lon="3.44569">
        <ele>16.438954</ele>
        <time>2020-10-01T15:24:09.765Z</time>
      </trkpt>
      <trkpt lat="50.49687" lon="3.44433">
        <ele>17.258177</ele>
        <time>2020-10-01T15:24:29.365Z</time>
      </trkpt>
      <trkpt lat="50.49674" lon="3.44405">
        <ele>17.388588</ele>
        <time>2020-10-01T15:24:33.376Z</time>
      </trkpt>
      <trkpt lat="50.49672" lon="3.44401">
        <ele>17.407531</ele>
        <time>2020-10-01T15:24:34.261Z</time>
      </trkpt>
      <trkpt lat="50.49669" lon="3.44396">
        <ele>17.434229</ele>
        <time>2020-10-01T15:24:35.073Z</time>
      </trkpt>
      <trkpt lat="50.49663" lon="3.44393">
        <ele>17.469672</ele>
        <time>2020-10-01T15:24:36.123Z</time>
      </trkpt>
      <trkpt lat="50.49648" lon="3.44404">
        <ele>17.566362</ele>
        <time>2020-10-01T15:24:39.111Z</time>
      </trkpt>
      <trkpt lat="50.4959" lon="3.44475">
        <ele>18.00382</ele>
        <time>2020-10-01T15:24:51.720Z</time>
      </trkpt>
      <trkpt lat="50.49562" lon="3.44503">
        <ele>18.197654</ele>
        <time>2020-10-01T15:24:56.782Z</time>
      </trkpt>
      <trkpt lat="50.49544" lon="3.44521">
        <ele>18.203505</ele>
        <time>2020-10-01T15:24:59.857Z</time>
      </trkpt>
      <trkpt lat="50.49491" lon="3.44561">
        <ele>18.101558</ele>
        <time>2020-10-01T15:25:08.209Z</time>
      </trkpt>
      <trkpt lat="50.49477" lon="3.44573">
        <ele>18.073858</ele>
        <time>2020-10-01T15:25:10.216Z</time>
      </trkpt>
      <trkpt lat="50.49426" lon="3.44654">
        <ele>17.947795</ele>
        <time>2020-10-01T15:25:20.158Z</time>
      </trkpt>
      <trkpt lat="50.4942" lon="3.44663">
        <ele>17.933351</ele>
        <time>2020-10-01T15:25:21.642Z</time>
      </trkpt>
      <trkpt lat="50.49368" lon="3.44744">
        <ele>18.051085</ele>
        <time>2020-10-01T15:25:32.511Z</time>
      </trkpt>
      <trkpt lat="50.49361" lon="3.44739">
        <ele>18.066624</ele>
        <time>2020-10-01T15:25:33.693Z</time>
      </trkpt>
      <trkpt lat="50.4934" lon="3.44731">
        <ele>18.1103</ele>
        <time>2020-10-01T15:25:37.078Z</time>
      </trkpt>
      <trkpt lat="50.49336" lon="3.44729">
        <ele>18.118431</ele>
        <time>2020-10-01T15:25:37.883Z</time>
      </trkpt>
      <trkpt lat="50.49301" lon="3.44709">
        <ele>18.195201</ele>
        <time>2020-10-01T15:25:44.162Z</time>
      </trkpt>
      <trkpt lat="50.49286" lon="3.44688">
        <ele>18.236454</ele>
        <time>2020-10-01T15:25:47.425Z</time>
      </trkpt>
      <trkpt lat="50.49254" lon="3.44618">
        <ele>18.337245</ele>
        <time>2020-10-01T15:25:56.225Z</time>
      </trkpt>
      <trkpt lat="50.49237" lon="3.44565">
        <ele>18.401509</ele>
        <time>2020-10-01T15:26:02.079Z</time>
      </trkpt>
      <trkpt lat="50.49227" lon="3.44464">
        <ele>18.511343</ele>
        <time>2020-10-01T15:26:11.933Z</time>
      </trkpt>
      <trkpt lat="50.49219" lon="3.44434">
        <ele>18.547281</ele>
        <time>2020-10-01T15:26:15.178Z</time>
      </trkpt>
      <trkpt lat="50.49167" lon="3.44324">
        <ele>18.899172</ele>
        <time>2020-10-01T15:26:28.674Z</time>
      </trkpt>
      <trkpt lat="50.49138" lon="3.44236">
        <ele>19.21274</ele>
        <time>2020-10-01T15:26:39.119Z</time>
      </trkpt>
      <trkpt lat="50.49109" lon="3.44183">
        <ele>19.436776</ele>
        <time>2020-10-01T15:26:47.184Z</time>
      </trkpt>
      <trkpt lat="50.49043" lon="3.44079">
        <ele>20.30206</ele>
        <time>2020-10-01T15:27:04.944Z</time>
      </trkpt>
      <trkpt lat="50.49034" lon="3.44057">
        <ele>20.465334</ele>
        <time>2020-10-01T15:27:08.176Z</time>
      </trkpt>
      <trkpt lat="50.48998" lon="3.43966">
        <ele>21.132144</ele>
        <time>2020-10-01T15:27:21.129Z</time>
      </trkpt>
      <trkpt lat="50.48981" lon="3.43937">
        <ele>21.290677</ele>
        <time>2020-10-01T15:27:25.724Z</time>
      </trkpt>
      <trkpt lat="50.48953" lon="3.43902">
        <ele>21.399564</ele>
        <time>2020-10-01T15:27:32.313Z</time>
      </trkpt>
      <trkpt lat="50.48944" lon="3.43891">
        <ele>21.43574</ele>
        <time>2020-10-01T15:27:34.387Z</time>
      </trkpt>
      <trkpt lat="50.48918" lon="3.43854">
        <ele>21.539694</ele>
        <time>2020-10-01T15:27:40.034Z</time>
      </trkpt>
      <trkpt lat="50.48907" lon="3.43837">
        <ele>21.588499</ele>
        <time>2020-10-01T15:27:42.517Z</time>
      </trkpt>
      <trkpt lat="50.48882" lon="3.43799">
        <ele>21.693992</ele>
        <time>2020-10-01T15:27:47.596Z</time>
      </trkpt>
      <trkpt lat="50.48863" lon="3.43769">
        <ele>21.775226</ele>
        <time>2020-10-01T15:27:51.322Z</time>
      </trkpt>
      <trkpt lat="50.48851" lon="3.4374">
        <ele>21.728779</ele>
        <time>2020-10-01T15:27:54.435Z</time>
      </trkpt>
      <trkpt lat="50.488" lon="3.4362">
        <ele>21.301263</ele>
        <time>2020-10-01T15:28:06.613Z</time>
      </trkpt>
      <trkpt lat="50.48793" lon="3.43602">
        <ele>21.238861</ele>
        <time>2020-10-01T15:28:08.434Z</time>
      </trkpt>
      <trkpt lat="50.48786" lon="3.43584">
        <ele>21.175962</ele>
        <time>2020-10-01T15:28:10.128Z</time>
      </trkpt>
      <trkpt lat="50.48774" lon="3.4355">
        <ele>21.060493</ele>
        <time>2020-10-01T15:28:13.394Z</time>
      </trkpt>
      <trkpt lat="50.48772" lon="3.4353">
        <ele>20.999396</ele>
        <time>2020-10-01T15:28:15.022Z</time>
      </trkpt>
      <trkpt lat="50.48777" lon="3.43508">
        <ele>20.931671</ele>
        <time>2020-10-01T15:28:16.910Z</time>
      </trkpt>
      <trkpt lat="50.48831" lon="3.43417">
        <ele>20.564808</ele>
        <time>2020-10-01T15:28:27.432Z</time>
      </trkpt>
      <trkpt lat="50.48835" lon="3.43392">
        <ele>20.485734</ele>
        <time>2020-10-01T15:28:29.794Z</time>
      </trkpt>
      <trkpt lat="50.48812" lon="3.43386">
        <ele>20.374394</ele>
        <time>2020-10-01T15:28:33.111Z</time>
      </trkpt>
      <trkpt lat="50.48714" lon="3.43358">
        <ele>19.88423</ele>
        <time>2020-10-01T15:28:46.438Z</time>
      </trkpt>
      <trkpt lat="50.48697" lon="3.4335">
        <ele>19.790327</ele>
        <time>2020-10-01T15:28:48.814Z</time>
      </trkpt>
      <trkpt lat="50.48614" lon="3.43307">
        <ele>19.334381</ele>
        <time>2020-10-01T15:29:00.196Z</time>
      </trkpt>
      <trkpt lat="50.48566" lon="3.43274">
        <ele>19.108682</ele>
        <time>2020-10-01T15:29:07.007Z</time>
      </trkpt>
      <trkpt lat="50.48516" lon="3.43213">
        <ele>18.915516</ele>
        <time>2020-10-01T15:29:15.387Z</time>
      </trkpt>
      <trkpt lat="50.48515" lon="3.43211">
        <ele>18.908405</ele>
        <time>2020-10-01T15:29:15.633Z</time>
      </trkpt>
      <trkpt lat="50.48503" lon="3.4319">
        <ele>18.853619</ele>
        <time>2020-10-01T15:29:18.317Z</time>
      </trkpt>
      <trkpt lat="50.48468" lon="3.43113">
        <ele>18.668727</ele>
        <time>2020-10-01T15:29:26.868Z</time>
      </trkpt>
      <trkpt lat="50.48438" lon="3.43022">
        <ele>18.591319</ele>
        <time>2020-10-01T15:29:36.441Z</time>
      </trkpt>
      <trkpt lat="50.48432" lon="3.43001">
        <ele>18.581252</ele>
        <time>2020-10-01T15:29:38.759Z</time>
      </trkpt>
      <trkpt lat="50.48426" lon="3.42971">
        <ele>18.567893</ele>
        <time>2020-10-01T15:29:41.719Z</time>
      </trkpt>
      <trkpt lat="50.48423" lon="3.42957">
        <ele>18.561581</ele>
        <time>2020-10-01T15:29:43.050Z</time>
      </trkpt>
      <trkpt lat="50.48404" lon="3.42822">
        <ele>18.506745</ele>
        <time>2020-10-01T15:29:56.036Z</time>
      </trkpt>
      <trkpt lat="50.48397" lon="3.4277">
        <ele>18.529061</ele>
        <time>2020-10-01T15:30:00.906Z</time>
      </trkpt>
      <trkpt lat="50.48391" lon="3.42733">
        <ele>18.545394</ele>
        <time>2020-10-01T15:30:04.317Z</time>
      </trkpt>
      <trkpt lat="50.48379" lon="3.42655">
        <ele>18.579366</ele>
        <time>2020-10-01T15:30:11.843Z</time>
      </trkpt>
      <trkpt lat="50.48364" lon="3.42603">
        <ele>18.603513</ele>
        <time>2020-10-01T15:30:17.539Z</time>
      </trkpt>
      <trkpt lat="50.48331" lon="3.42556">
        <ele>18.68809</ele>
        <time>2020-10-01T15:30:24.554Z</time>
      </trkpt>
      <trkpt lat="50.48298" lon="3.42533">
        <ele>18.869152</ele>
        <time>2020-10-01T15:30:30.580Z</time>
      </trkpt>
      <trkpt lat="50.48265" lon="3.42517">
        <ele>19.044043</ele>
        <time>2020-10-01T15:30:36.527Z</time>
      </trkpt>
      <trkpt lat="50.48243" lon="3.4251">
        <ele>19.155252</ele>
        <time>2020-10-01T15:30:40.376Z</time>
      </trkpt>
      <trkpt lat="50.48275" lon="3.42268">
        <ele>19.914754</ele>
        <time>2020-10-01T15:31:07.568Z</time>
      </trkpt>
      <trkpt lat="50.48282" lon="3.42212">
        <ele>20.082957</ele>
        <time>2020-10-01T15:31:13.442Z</time>
      </trkpt>
      <trkpt lat="50.48281" lon="3.42171">
        <ele>20.207659</ele>
        <time>2020-10-01T15:31:17.749Z</time>
      </trkpt>
      <trkpt lat="50.4827" lon="3.42108">
        <ele>20.376016</ele>
        <time>2020-10-01T15:31:24.480Z</time>
      </trkpt>
      <trkpt lat="50.48267" lon="3.42088">
        <ele>20.395926</ele>
        <time>2020-10-01T15:31:26.611Z</time>
      </trkpt>
      <trkpt lat="50.48265" lon="3.42058">
        <ele>20.423898</ele>
        <time>2020-10-01T15:31:29.628Z</time>
      </trkpt>
      <trkpt lat="50.48277" lon="3.41973">
        <ele>20.506093</ele>
        <time>2020-10-01T15:31:38.405Z</time>
      </trkpt>
      <trkpt lat="50.48335" lon="3.41557">
        <ele>20.685183</ele>
        <time>2020-10-01T15:32:19.059Z</time>
      </trkpt>
      <trkpt lat="50.48361" lon="3.41323">
        <ele>20.574258</ele>
        <time>2020-10-01T15:32:41.498Z</time>
      </trkpt>
      <trkpt lat="50.48367" lon="3.4127">
        <ele>20.478502</ele>
        <time>2020-10-01T15:32:46.211Z</time>
      </trkpt>
      <trkpt lat="50.48315" lon="3.41233">
        <ele>20.109725</ele>
        <time>2020-10-01T15:32:53.933Z</time>
      </trkpt>
      <trkpt lat="50.48216" lon="3.41154">
        <ele>19.408252</ele>
        <time>2020-10-01T15:33:07.859Z</time>
      </trkpt>
      <trkpt lat="50.48168" lon="3.41138">
        <ele>19.099135</ele>
        <time>2020-10-01T15:33:13.880Z</time>
      </trkpt>
      <trkpt lat="50.48073" lon="3.41064">
        <ele>18.423257</ele>
        <time>2020-10-01T15:33:27.617Z</time>
      </trkpt>
      <trkpt lat="50.47954" lon="3.40965">
        <ele>18.008328</ele>
        <time>2020-10-01T15:33:46.468Z</time>
      </trkpt>
      <trkpt lat="50.47935" lon="3.40945">
        <ele>17.953926</ele>
        <time>2020-10-01T15:33:49.691Z</time>
      </trkpt>
      <trkpt lat="50.47904" lon="3.40903">
        <ele>17.857254</ele>
        <time>2020-10-01T15:33:55.531Z</time>
      </trkpt>
      <trkpt lat="50.47888" lon="3.40869">
        <ele>17.818326</ele>
        <time>2020-10-01T15:33:59.462Z</time>
      </trkpt>
      <trkpt lat="50.47871" lon="3.40816">
        <ele>17.773578</ele>
        <time>2020-10-01T15:34:04.814Z</time>
      </trkpt>
      <trkpt lat="50.47867" lon="3.408">
        <ele>17.760436</ele>
        <time>2020-10-01T15:34:06.409Z</time>
      </trkpt>
      <trkpt lat="50.47856" lon="3.40762">
        <ele>17.728632</ele>
        <time>2020-10-01T15:34:10.163Z</time>
      </trkpt>
      <trkpt lat="50.47765" lon="3.40417">
        <ele>17.569438</ele>
        <time>2020-10-01T15:34:44.785Z</time>
      </trkpt>
      <trkpt lat="50.47744" lon="3.40344">
        <ele>17.550516</ele>
        <time>2020-10-01T15:34:52.575Z</time>
      </trkpt>
      <trkpt lat="50.47733" lon="3.40307">
        <ele>17.541366</ele>
        <time>2020-10-01T15:34:56.456Z</time>
      </trkpt>
      <trkpt lat="50.47729" lon="3.40294">
        <ele>17.538279</ele>
        <time>2020-10-01T15:34:57.828Z</time>
      </trkpt>
      <trkpt lat="50.47707" lon="3.40255">
        <ele>17.52651</ele>
        <time>2020-10-01T15:35:02.826Z</time>
      </trkpt>
      <trkpt lat="50.47702" lon="3.40246">
        <ele>17.523734</ele>
        <time>2020-10-01T15:35:04.050Z</time>
      </trkpt>
      <trkpt lat="50.47704" lon="3.40241">
        <ele>17.522285</ele>
        <time>2020-10-01T15:35:04.606Z</time>
      </trkpt>
      <trkpt lat="50.47732" lon="3.40193">
        <ele>17.507868</ele>
        <time>2020-10-01T15:35:10.666Z</time>
      </trkpt>
      <trkpt lat="50.4783" lon="3.40085">
        <ele>17.279158</ele>
        <time>2020-10-01T15:35:27.432Z</time>
      </trkpt>
      <trkpt lat="50.47874" lon="3.40052">
        <ele>17.15816</ele>
        <time>2020-10-01T15:35:34.115Z</time>
      </trkpt>
      <trkpt lat="50.48006" lon="3.40015">
        <ele>17.147</ele>
        <time>2020-10-01T15:35:53.160Z</time>
      </trkpt>
      <trkpt lat="50.48026" lon="3.40021">
        <ele>17.167997</ele>
        <time>2020-10-01T15:35:56.259Z</time>
      </trkpt>
      <trkpt lat="50.48066" lon="3.40055">
        <ele>17.21583</ele>
        <time>2020-10-01T15:36:04.029Z</time>
      </trkpt>
      <trkpt lat="50.481" lon="3.40053">
        <ele>17.274675</ele>
        <time>2020-10-01T15:36:09.669Z</time>
      </trkpt>
      <trkpt lat="50.48107" lon="3.4005">
        <ele>17.300782</ele>
        <time>2020-10-01T15:36:10.821Z</time>
      </trkpt>
      <trkpt lat="50.48117" lon="3.40045">
        <ele>17.33873</ele>
        <time>2020-10-01T15:36:12.667Z</time>
      </trkpt>
      <trkpt lat="50.48129" lon="3.40035">
        <ele>17.384092</ele>
        <time>2020-10-01T15:36:14.899Z</time>
      </trkpt>
      <trkpt lat="50.48129" lon="3.40035">
        <ele>17.384092</ele>
        <time>2020-10-01T15:36:14.921Z</time>
      </trkpt>
      <trkpt lat="50.48135" lon="3.40031">
        <ele>17.404948</ele>
        <time>2020-10-01T15:36:15.865Z</time>
      </trkpt>
      <trkpt lat="50.48161" lon="3.39995">
        <ele>17.524085</ele>
        <time>2020-10-01T15:36:21.620Z</time>
      </trkpt>
      <trkpt lat="50.48188" lon="3.39968">
        <ele>17.634695</ele>
        <time>2020-10-01T15:36:26.986Z</time>
      </trkpt>
      <trkpt lat="50.48218" lon="3.39938">
        <ele>17.757379</ele>
        <time>2020-10-01T15:36:32.831Z</time>
      </trkpt>
      <trkpt lat="50.48229" lon="3.39927">
        <ele>17.799358</ele>
        <time>2020-10-01T15:36:34.588Z</time>
      </trkpt>
      <trkpt lat="50.48299" lon="3.39871">
        <ele>17.720246</ele>
        <time>2020-10-01T15:36:46.135Z</time>
      </trkpt>
      <trkpt lat="50.48346" lon="3.39843">
        <ele>17.609253</ele>
        <time>2020-10-01T15:36:53.068Z</time>
      </trkpt>
      <trkpt lat="50.48358" lon="3.3984">
        <ele>17.581875</ele>
        <time>2020-10-01T15:36:54.659Z</time>
      </trkpt>
      <trkpt lat="50.48355" lon="3.39827">
        <ele>17.562464</ele>
        <time>2020-10-01T15:36:56.238Z</time>
      </trkpt>
      <trkpt lat="50.48343" lon="3.39766">
        <ele>17.473859</ele>
        <time>2020-10-01T15:37:03.981Z</time>
      </trkpt>
      <trkpt lat="50.4833" lon="3.39725">
        <ele>17.457284</ele>
        <time>2020-10-01T15:37:09.792Z</time>
      </trkpt>
      <trkpt lat="50.48299" lon="3.39629">
        <ele>17.444219</ele>
        <time>2020-10-01T15:37:23.391Z</time>
      </trkpt>
      <trkpt lat="50.48272" lon="3.39547">
        <ele>17.43291</ele>
        <time>2020-10-01T15:37:35.457Z</time>
      </trkpt>
      <trkpt lat="50.4827" lon="3.39544">
        <ele>17.432277</ele>
        <time>2020-10-01T15:37:36.182Z</time>
      </trkpt>
      <trkpt lat="50.4826" lon="3.39528">
        <ele>17.429543</ele>
        <time>2020-10-01T15:37:39.192Z</time>
      </trkpt>
      <trkpt lat="50.48162" lon="3.39398">
        <ele>17.485437</ele>
        <time>2020-10-01T15:38:06.034Z</time>
      </trkpt>
      <trkpt lat="50.48141" lon="3.39355">
        <ele>17.502819</ele>
        <time>2020-10-01T15:38:13.087Z</time>
      </trkpt>
      <trkpt lat="50.48132" lon="3.3934">
        <ele>17.50922</ele>
        <time>2020-10-01T15:38:15.591Z</time>
      </trkpt>
      <trkpt lat="50.48115" lon="3.39328">
        <ele>17.512105</ele>
        <time>2020-10-01T15:38:19.362Z</time>
      </trkpt>
      <trkpt lat="50.48107" lon="3.3932">
        <ele>17.498659</ele>
        <time>2020-10-01T15:38:21.044Z</time>
      </trkpt>
      <trkpt lat="50.48091" lon="3.39168">
        <ele>17.351863</ele>
        <time>2020-10-01T15:38:40.177Z</time>
      </trkpt>
      <trkpt lat="50.48056" lon="3.39118">
        <ele>17.280603</ele>
        <time>2020-10-01T15:38:49.412Z</time>
      </trkpt>
      <trkpt lat="50.48049" lon="3.39109">
        <ele>17.26757</ele>
        <time>2020-10-01T15:38:50.951Z</time>
      </trkpt>
      <trkpt lat="50.48047" lon="3.39107">
        <ele>17.263971</ele>
        <time>2020-10-01T15:38:51.652Z</time>
      </trkpt>
      <trkpt lat="50.47949" lon="3.38958">
        <ele>17.331182</ele>
        <time>2020-10-01T15:39:19.728Z</time>
      </trkpt>
      <trkpt lat="50.47932" lon="3.38926">
        <ele>17.348756</ele>
        <time>2020-10-01T15:39:25.308Z</time>
      </trkpt>
      <trkpt lat="50.47935" lon="3.38862">
        <ele>17.359989</ele>
        <time>2020-10-01T15:39:33.631Z</time>
      </trkpt>
      <trkpt lat="50.47948" lon="3.3879">
        <ele>17.332951</ele>
        <time>2020-10-01T15:39:43.299Z</time>
      </trkpt>
      <trkpt lat="50.47886" lon="3.38706">
        <ele>17.286504</ele>
        <time>2020-10-01T15:39:59.549Z</time>
      </trkpt>
      <trkpt lat="50.47818" lon="3.38613">
        <ele>17.301852</ele>
        <time>2020-10-01T15:40:17.428Z</time>
      </trkpt>
      <trkpt lat="50.47801" lon="3.38601">
        <ele>17.314662</ele>
        <time>2020-10-01T15:40:21.103Z</time>
      </trkpt>
      <trkpt lat="50.47626" lon="3.38618">
        <ele>17.608665</ele>
        <time>2020-10-01T15:40:57.980Z</time>
      </trkpt>
      <trkpt lat="50.47584" lon="3.38612">
        <ele>17.74819</ele>
        <time>2020-10-01T15:41:07.189Z</time>
      </trkpt>
      <trkpt lat="50.47536" lon="3.38594">
        <ele>17.91023</ele>
        <time>2020-10-01T15:41:17.952Z</time>
      </trkpt>
      <trkpt lat="50.47519" lon="3.38585">
        <ele>17.968025</ele>
        <time>2020-10-01T15:41:21.802Z</time>
      </trkpt>
      <trkpt lat="50.4749" lon="3.38567">
        <ele>18.066692</ele>
        <time>2020-10-01T15:41:28.594Z</time>
      </trkpt>
      <trkpt lat="50.47484" lon="3.38564">
        <ele>18.08808</ele>
        <time>2020-10-01T15:41:30.026Z</time>
      </trkpt>
      <trkpt lat="50.47452" lon="3.38544">
        <ele>18.19876</ele>
        <time>2020-10-01T15:41:37.554Z</time>
      </trkpt>
      <trkpt lat="50.47379" lon="3.38499">
        <ele>18.451155</ele>
        <time>2020-10-01T15:41:54.349Z</time>
      </trkpt>
      <trkpt lat="50.4736" lon="3.38488">
        <ele>18.516975</ele>
        <time>2020-10-01T15:41:58.771Z</time>
      </trkpt>
      <trkpt lat="50.47358" lon="3.38493">
        <ele>18.528789</ele>
        <time>2020-10-01T15:41:59.533Z</time>
      </trkpt>
      <trkpt lat="50.47357" lon="3.38496">
        <ele>18.533874</ele>
        <time>2020-10-01T15:41:59.863Z</time>
      </trkpt>
      <trkpt lat="50.47339" lon="3.38482">
        <ele>18.548386</ele>
        <time>2020-10-01T15:42:03.120Z</time>
      </trkpt>
      <trkpt lat="50.4728" lon="3.38446">
        <ele>18.510947</ele>
        <time>2020-10-01T15:42:12.777Z</time>
      </trkpt>
      <trkpt lat="50.4717" lon="3.38321">
        <ele>18.329135</ele>
        <time>2020-10-01T15:42:31.984Z</time>
      </trkpt>
      <trkpt lat="50.47123" lon="3.38255">
        <ele>18.099259</ele>
        <time>2020-10-01T15:42:40.483Z</time>
      </trkpt>
      <trkpt lat="50.47089" lon="3.38194">
        <ele>17.913088</ele>
        <time>2020-10-01T15:42:47.390Z</time>
      </trkpt>
      <trkpt lat="50.47058" lon="3.38139">
        <ele>17.747247</ele>
        <time>2020-10-01T15:42:53.724Z</time>
      </trkpt>
      <trkpt lat="50.4705" lon="3.38112">
        <ele>17.686914</ele>
        <time>2020-10-01T15:42:56.280Z</time>
      </trkpt>
      <trkpt lat="50.47001" lon="3.37859">
        <ele>17.188759</ele>
        <time>2020-10-01T15:43:19.419Z</time>
      </trkpt>
      <trkpt lat="50.46987" lon="3.3782">
        <ele>17.154842</ele>
        <time>2020-10-01T15:43:23.545Z</time>
      </trkpt>
      <trkpt lat="50.46955" lon="3.37759">
        <ele>17.094479</ele>
        <time>2020-10-01T15:43:30.986Z</time>
      </trkpt>
      <trkpt lat="50.46944" lon="3.37741">
        <ele>17.076059</ele>
        <time>2020-10-01T15:43:33.211Z</time>
      </trkpt>
      <trkpt lat="50.46915" lon="3.37692">
        <ele>17.025417</ele>
        <time>2020-10-01T15:43:39.500Z</time>
      </trkpt>
      <trkpt lat="50.46895" lon="3.37661">
        <ele>16.997541</ele>
        <time>2020-10-01T15:43:43.598Z</time>
      </trkpt>
      <trkpt lat="50.46787" lon="3.37489">
        <ele>16.928624</ele>
        <time>2020-10-01T15:44:06.443Z</time>
      </trkpt>
      <trkpt lat="50.46744" lon="3.37394">
        <ele>16.88099</ele>
        <time>2020-10-01T15:44:16.948Z</time>
      </trkpt>
      <trkpt lat="50.46719" lon="3.37323">
        <ele>16.844631</ele>
        <time>2020-10-01T15:44:24.318Z</time>
      </trkpt>
      <trkpt lat="50.46696" lon="3.37251">
        <ele>16.808736</ele>
        <time>2020-10-01T15:44:31.725Z</time>
      </trkpt>
      <trkpt lat="50.46682" lon="3.37206">
        <ele>16.826012</ele>
        <time>2020-10-01T15:44:36.535Z</time>
      </trkpt>
      <trkpt lat="50.4657" lon="3.36849">
        <ele>17.781665</ele>
        <time>2020-10-01T15:45:18.293Z</time>
      </trkpt>
      <trkpt lat="50.46557" lon="3.36818">
        <ele>17.895905</ele>
        <time>2020-10-01T15:45:22.436Z</time>
      </trkpt>
      <trkpt lat="50.46488" lon="3.36738">
        <ele>18.286517</ele>
        <time>2020-10-01T15:45:36.824Z</time>
      </trkpt>
      <trkpt lat="50.46467" lon="3.36728">
        <ele>18.344733</ele>
        <time>2020-10-01T15:45:40.607Z</time>
      </trkpt>
      <trkpt lat="50.46452" lon="3.36722">
        <ele>18.385394</ele>
        <time>2020-10-01T15:45:43.019Z</time>
      </trkpt>
      <trkpt lat="50.46439" lon="3.36709">
        <ele>18.426009</ele>
        <time>2020-10-01T15:45:45.631Z</time>
      </trkpt>
      <trkpt lat="50.46358" lon="3.36511">
        <ele>18.660107</ele>
        <time>2020-10-01T15:46:08.805Z</time>
      </trkpt>
      <trkpt lat="50.46321" lon="3.36449">
        <ele>18.559261</ele>
        <time>2020-10-01T15:46:16.452Z</time>
      </trkpt>
      <trkpt lat="50.4632" lon="3.36447">
        <ele>18.557031</ele>
        <time>2020-10-01T15:46:16.616Z</time>
      </trkpt>
      <trkpt lat="50.46291" lon="3.36394">
        <ele>18.474239</ele>
        <time>2020-10-01T15:46:22.780Z</time>
      </trkpt>
      <trkpt lat="50.46283" lon="3.36381">
        <ele>18.452683</ele>
        <time>2020-10-01T15:46:24.380Z</time>
      </trkpt>
      <trkpt lat="50.46268" lon="3.36356">
        <ele>18.4121</ele>
        <time>2020-10-01T15:46:27.263Z</time>
      </trkpt>
      <trkpt lat="50.46193" lon="3.3626">
        <ele>18.174702</ele>
        <time>2020-10-01T15:46:40.459Z</time>
      </trkpt>
      <trkpt lat="50.46169" lon="3.36231">
        <ele>18.097488</ele>
        <time>2020-10-01T15:46:44.659Z</time>
      </trkpt>
      <trkpt lat="50.46156" lon="3.36216">
        <ele>18.058385</ele>
        <time>2020-10-01T15:46:46.738Z</time>
      </trkpt>
      <trkpt lat="50.46104" lon="3.36155">
        <ele>17.93381</ele>
        <time>2020-10-01T15:46:56.390Z</time>
      </trkpt>
      <trkpt lat="50.46014" lon="3.36031">
        <ele>17.907656</ele>
        <time>2020-10-01T15:47:14.553Z</time>
      </trkpt>
      <trkpt lat="50.4599" lon="3.36">
        <ele>17.900998</ele>
        <time>2020-10-01T15:47:19.002Z</time>
      </trkpt>
      <trkpt lat="50.45982" lon="3.35989">
        <ele>17.89861</ele>
        <time>2020-10-01T15:47:20.598Z</time>
      </trkpt>
      <trkpt lat="50.4593" lon="3.35917">
        <ele>17.753931</ele>
        <time>2020-10-01T15:47:30.500Z</time>
      </trkpt>
      <trkpt lat="50.45926" lon="3.35913">
        <ele>17.74388</ele>
        <time>2020-10-01T15:47:31.153Z</time>
      </trkpt>
      <trkpt lat="50.45913" lon="3.35885">
        <ele>17.696631</ele>
        <time>2020-10-01T15:47:34.294Z</time>
      </trkpt>
      <trkpt lat="50.45875" lon="3.3579">
        <ele>17.546666</ele>
        <time>2020-10-01T15:47:44.062Z</time>
      </trkpt>
      <trkpt lat="50.45867" lon="3.3575">
        <ele>17.524539</ele>
        <time>2020-10-01T15:47:47.737Z</time>
      </trkpt>
      <trkpt lat="50.45866" lon="3.35716">
        <ele>17.534378</ele>
        <time>2020-10-01T15:47:50.763Z</time>
      </trkpt>
      <trkpt lat="50.4588" lon="3.35603">
        <ele>17.568027</ele>
        <time>2020-10-01T15:48:01.608Z</time>
      </trkpt>
      <trkpt lat="50.45877" lon="3.35565">
        <ele>17.579018</ele>
        <time>2020-10-01T15:48:05.376Z</time>
      </trkpt>
      <trkpt lat="50.4578" lon="3.35273">
        <ele>18.174435</ele>
        <time>2020-10-01T15:48:39.527Z</time>
      </trkpt>
      <trkpt lat="50.45722" lon="3.35074">
        <ele>18.478509</ele>
        <time>2020-10-01T15:49:01.764Z</time>
      </trkpt>
      <trkpt lat="50.45681" lon="3.34971">
        <ele>18.605861</ele>
        <time>2020-10-01T15:49:13.501Z</time>
      </trkpt>
      <trkpt lat="50.4567" lon="3.34927">
        <ele>18.624535</ele>
        <time>2020-10-01T15:49:18.064Z</time>
      </trkpt>
      <trkpt lat="50.45667" lon="3.34888">
        <ele>18.640234</ele>
        <time>2020-10-01T15:49:21.810Z</time>
      </trkpt>
      <trkpt lat="50.45663" lon="3.34834">
        <ele>18.661747</ele>
        <time>2020-10-01T15:49:27.032Z</time>
      </trkpt>
      <trkpt lat="50.45652" lon="3.34838">
        <ele>18.668529</ele>
        <time>2020-10-01T15:49:28.725Z</time>
      </trkpt>
      <trkpt lat="50.45611" lon="3.34853">
        <ele>18.694651</ele>
        <time>2020-10-01T15:49:35.019Z</time>
      </trkpt>
      <trkpt lat="50.45546" lon="3.3486">
        <ele>18.762265</ele>
        <time>2020-10-01T15:49:44.879Z</time>
      </trkpt>
      <trkpt lat="50.4538" lon="3.34795">
        <ele>18.919653</ele>
        <time>2020-10-01T15:50:11.180Z</time>
      </trkpt>
      <trkpt lat="50.45378" lon="3.34794">
        <ele>18.919637</ele>
        <time>2020-10-01T15:50:11.556Z</time>
      </trkpt>
      <trkpt lat="50.4537" lon="3.34791">
        <ele>18.919587</ele>
        <time>2020-10-01T15:50:12.796Z</time>
      </trkpt>
      <trkpt lat="50.45362" lon="3.34791">
        <ele>18.919538</ele>
        <time>2020-10-01T15:50:14.015Z</time>
      </trkpt>
      <trkpt lat="50.45359" lon="3.3479">
        <ele>18.91952</ele>
        <time>2020-10-01T15:50:14.477Z</time>
      </trkpt>
      <trkpt lat="50.45302" lon="3.34791">
        <ele>18.919175</ele>
        <time>2020-10-01T15:50:22.967Z</time>
      </trkpt>
      <trkpt lat="50.45273" lon="3.34802">
        <ele>18.918992</ele>
        <time>2020-10-01T15:50:27.401Z</time>
      </trkpt>
      <trkpt lat="50.45179" lon="3.34879">
        <ele>18.662564</ele>
        <time>2020-10-01T15:50:42.320Z</time>
      </trkpt>
      <trkpt lat="50.4515" lon="3.34893">
        <ele>18.555819</ele>
        <time>2020-10-01T15:50:46.427Z</time>
      </trkpt>
      <trkpt lat="50.45131" lon="3.34902">
        <ele>18.486028</ele>
        <time>2020-10-01T15:50:49.050Z</time>
      </trkpt>
      <trkpt lat="50.45036" lon="3.34917">
        <ele>18.08113</ele>
        <time>2020-10-01T15:51:01.646Z</time>
      </trkpt>
      <trkpt lat="50.44983" lon="3.34944">
        <ele>17.785141</ele>
        <time>2020-10-01T15:51:08.841Z</time>
      </trkpt>
      <trkpt lat="50.44956" lon="3.34977">
        <ele>17.60376</ele>
        <time>2020-10-01T15:51:13.347Z</time>
      </trkpt>
      <trkpt lat="50.44914" lon="3.35041">
        <ele>17.330553</ele>
        <time>2020-10-01T15:51:21.046Z</time>
      </trkpt>
      <trkpt lat="50.44884" lon="3.35088">
        <ele>17.357975</ele>
        <time>2020-10-01T15:51:26.818Z</time>
      </trkpt>
      <trkpt lat="50.44856" lon="3.35137">
        <ele>17.385347</ele>
        <time>2020-10-01T15:51:33.376Z</time>
      </trkpt>
      <trkpt lat="50.44833" lon="3.35176">
        <ele>17.406752</ele>
        <time>2020-10-01T15:51:38.713Z</time>
      </trkpt>
      <trkpt lat="50.44827" lon="3.35188">
        <ele>17.413178</ele>
        <time>2020-10-01T15:51:40.304Z</time>
      </trkpt>
      <trkpt lat="50.44799" lon="3.35232">
        <ele>17.438744</ele>
        <time>2020-10-01T15:51:46.743Z</time>
      </trkpt>
      <trkpt lat="50.4478" lon="3.35259">
        <ele>17.487243</ele>
        <time>2020-10-01T15:51:50.981Z</time>
      </trkpt>
      <trkpt lat="50.44769" lon="3.3527">
        <ele>17.516865</ele>
        <time>2020-10-01T15:51:53.095Z</time>
      </trkpt>
      <trkpt lat="50.44747" lon="3.35294">
        <ele>17.577036</ele>
        <time>2020-10-01T15:51:57.553Z</time>
      </trkpt>
      <trkpt lat="50.44644" lon="3.35366">
        <ele>17.833254</ele>
        <time>2020-10-01T15:52:15.342Z</time>
      </trkpt>
      <trkpt lat="50.44593" lon="3.35386">
        <ele>17.769246</ele>
        <time>2020-10-01T15:52:22.917Z</time>
      </trkpt>
      <trkpt lat="50.44557" lon="3.35387">
        <ele>17.705256</ele>
        <time>2020-10-01T15:52:27.824Z</time>
      </trkpt>
      <trkpt lat="50.4454" lon="3.35377">
        <ele>17.672747</ele>
        <time>2020-10-01T15:52:30.341Z</time>
      </trkpt>
      <trkpt lat="50.44526" lon="3.35363">
        <ele>17.642711</ele>
        <time>2020-10-01T15:52:32.654Z</time>
      </trkpt>
      <trkpt lat="50.44524" lon="3.35356">
        <ele>17.633517</ele>
        <time>2020-10-01T15:52:33.681Z</time>
      </trkpt>
      <trkpt lat="50.44521" lon="3.3535">
        <ele>17.625628</ele>
        <time>2020-10-01T15:52:34.523Z</time>
      </trkpt>
      <trkpt lat="50.44516" lon="3.35345">
        <ele>17.614304</ele>
        <time>2020-10-01T15:52:35.741Z</time>
      </trkpt>
      <trkpt lat="50.44509" lon="3.35343">
        <ele>17.60306</ele>
        <time>2020-10-01T15:52:36.929Z</time>
      </trkpt>
      <trkpt lat="50.44502" lon="3.35344">
        <ele>17.589317</ele>
        <time>2020-10-01T15:52:38.410Z</time>
      </trkpt>
      <trkpt lat="50.44491" lon="3.3536">
        <ele>17.562102</ele>
        <time>2020-10-01T15:52:41.383Z</time>
      </trkpt>
      <trkpt lat="50.4449" lon="3.35382">
        <ele>17.536969</ele>
        <time>2020-10-01T15:52:44.085Z</time>
      </trkpt>
      <trkpt lat="50.44493" lon="3.35391">
        <ele>17.52879</ele>
        <time>2020-10-01T15:52:45.246Z</time>
      </trkpt>
      <trkpt lat="50.44495" lon="3.35409">
        <ele>17.534037</ele>
        <time>2020-10-01T15:52:46.910Z</time>
      </trkpt>
      <trkpt lat="50.44495" lon="3.35438">
        <ele>17.54244</ele>
        <time>2020-10-01T15:52:49.525Z</time>
      </trkpt>
      <trkpt lat="50.44406" lon="3.3586">
        <ele>17.761911</ele>
        <time>2020-10-01T15:53:33.001Z</time>
      </trkpt>
      <trkpt lat="50.44392" lon="3.35844">
        <ele>17.781763</ele>
        <time>2020-10-01T15:53:35.510Z</time>
      </trkpt>
      <trkpt lat="50.44366" lon="3.35818">
        <ele>17.820516</ele>
        <time>2020-10-01T15:53:40.184Z</time>
      </trkpt>
      <trkpt lat="50.4435" lon="3.35789">
        <ele>17.883458</ele>
        <time>2020-10-01T15:53:44.139Z</time>
      </trkpt>
      <trkpt lat="50.44288" lon="3.35676">
        <ele>18.122433</ele>
        <time>2020-10-01T15:53:59.399Z</time>
      </trkpt>
      <trkpt lat="50.44267" lon="3.35635">
        <ele>18.206541</ele>
        <time>2020-10-01T15:54:04.734Z</time>
      </trkpt>
      <trkpt lat="50.44229" lon="3.35546">
        <ele>18.312832</ele>
        <time>2020-10-01T15:54:15.628Z</time>
      </trkpt>
      <trkpt lat="50.4421" lon="3.355">
        <ele>18.347342</ele>
        <time>2020-10-01T15:54:21.099Z</time>
      </trkpt>
      <trkpt lat="50.44183" lon="3.3543">
        <ele>18.399625</ele>
        <time>2020-10-01T15:54:29.358Z</time>
      </trkpt>
      <trkpt lat="50.44173" lon="3.35398">
        <ele>18.421976</ele>
        <time>2020-10-01T15:54:32.654Z</time>
      </trkpt>
      <trkpt lat="50.44155" lon="3.35329">
        <ele>18.340837</ele>
        <time>2020-10-01T15:54:39.252Z</time>
      </trkpt>
      <trkpt lat="50.44142" lon="3.35221">
        <ele>18.00115</ele>
        <time>2020-10-01T15:54:48.363Z</time>
      </trkpt>
      <trkpt lat="50.44141" lon="3.35209">
        <ele>17.963503</ele>
        <time>2020-10-01T15:54:49.380Z</time>
      </trkpt>
      <trkpt lat="50.44139" lon="3.35165">
        <ele>17.825303</ele>
        <time>2020-10-01T15:54:53.118Z</time>
      </trkpt>
      <trkpt lat="50.44143" lon="3.35127">
        <ele>17.705147</ele>
        <time>2020-10-01T15:54:56.370Z</time>
      </trkpt>
      <trkpt lat="50.44147" lon="3.35122">
        <ele>17.682332</ele>
        <time>2020-10-01T15:54:56.979Z</time>
      </trkpt>
      <trkpt lat="50.44149" lon="3.35115">
        <ele>17.659052</ele>
        <time>2020-10-01T15:54:57.616Z</time>
      </trkpt>
      <trkpt lat="50.4415" lon="3.35108">
        <ele>17.636218</ele>
        <time>2020-10-01T15:54:58.231Z</time>
      </trkpt>
      <trkpt lat="50.4415" lon="3.35101">
        <ele>17.613104</ele>
        <time>2020-10-01T15:54:58.845Z</time>
      </trkpt>
      <trkpt lat="50.44148" lon="3.35095">
        <ele>17.593519</ele>
        <time>2020-10-01T15:54:59.367Z</time>
      </trkpt>
      <trkpt lat="50.44145" lon="3.3509">
        <ele>17.574065</ele>
        <time>2020-10-01T15:54:59.863Z</time>
      </trkpt>
      <trkpt lat="50.44142" lon="3.35086">
        <ele>17.567867</ele>
        <time>2020-10-01T15:55:00.419Z</time>
      </trkpt>
      <trkpt lat="50.44138" lon="3.35084">
        <ele>17.562717</ele>
        <time>2020-10-01T15:55:00.975Z</time>
      </trkpt>
      <trkpt lat="50.4413" lon="3.3505">
        <ele>17.53359</ele>
        <time>2020-10-01T15:55:04.069Z</time>
      </trkpt>
      <trkpt lat="50.4413" lon="3.35046">
        <ele>17.529787</ele>
        <time>2020-10-01T15:55:04.435Z</time>
      </trkpt>
      <trkpt lat="50.44112" lon="3.34959">
        <ele>17.455431</ele>
        <time>2020-10-01T15:55:12.629Z</time>
      </trkpt>
      <trkpt lat="50.44089" lon="3.34888">
        <ele>17.391638</ele>
        <time>2020-10-01T15:55:19.822Z</time>
      </trkpt>
      <trkpt lat="50.44082" lon="3.34865">
        <ele>17.370985</ele>
        <time>2020-10-01T15:55:22.388Z</time>
      </trkpt>
      <trkpt lat="50.44062" lon="3.34805">
        <ele>17.47178</ele>
        <time>2020-10-01T15:55:29.381Z</time>
      </trkpt>
      <trkpt lat="50.44058" lon="3.34742">
        <ele>17.711465</ele>
        <time>2020-10-01T15:55:36.322Z</time>
      </trkpt>
      <trkpt lat="50.4407" lon="3.34583">
        <ele>18.309277</ele>
        <time>2020-10-01T15:55:54.484Z</time>
      </trkpt>
      <trkpt lat="50.44064" lon="3.34517">
        <ele>18.554868</ele>
        <time>2020-10-01T15:56:01.947Z</time>
      </trkpt>
      <trkpt lat="50.44004" lon="3.34269">
        <ele>19.447927</ele>
        <time>2020-10-01T15:56:30.793Z</time>
      </trkpt>
      <trkpt lat="50.43975" lon="3.34167">
        <ele>19.494572</ele>
        <time>2020-10-01T15:56:42.035Z</time>
      </trkpt>
      <trkpt lat="50.43957" lon="3.34039">
        <ele>19.549308</ele>
        <time>2020-10-01T15:56:54.313Z</time>
      </trkpt>
      <trkpt lat="50.43958" lon="3.33992">
        <ele>19.445436</ele>
        <time>2020-10-01T15:56:58.256Z</time>
      </trkpt>
      <trkpt lat="50.43946" lon="3.33991">
        <ele>19.379807</ele>
        <time>2020-10-01T15:56:59.927Z</time>
      </trkpt>
      <trkpt lat="50.43877" lon="3.33966">
        <ele>19.003695</ele>
        <time>2020-10-01T15:57:09.173Z</time>
      </trkpt>
      <trkpt lat="50.43854" lon="3.33976">
        <ele>18.876315</ele>
        <time>2020-10-01T15:57:12.230Z</time>
      </trkpt>
      <trkpt lat="50.43843" lon="3.33989">
        <ele>18.804033</ele>
        <time>2020-10-01T15:57:14.030Z</time>
      </trkpt>
      <trkpt lat="50.43838" lon="3.34">
        <ele>18.757117</ele>
        <time>2020-10-01T15:57:15.118Z</time>
      </trkpt>
      <trkpt lat="50.43829" lon="3.3402">
        <ele>18.676103</ele>
        <time>2020-10-01T15:57:17.097Z</time>
      </trkpt>
      <trkpt lat="50.43784" lon="3.34154">
        <ele>18.165437</ele>
        <time>2020-10-01T15:57:29.673Z</time>
      </trkpt>
      <trkpt lat="50.43757" lon="3.34211">
        <ele>17.927018</ele>
        <time>2020-10-01T15:57:35.590Z</time>
      </trkpt>
      <trkpt lat="50.43711" lon="3.34283">
        <ele>17.617508</ele>
        <time>2020-10-01T15:57:44.533Z</time>
      </trkpt>
      <trkpt lat="50.43618" lon="3.34403">
        <ele>17.329707</ele>
        <time>2020-10-01T15:58:01.245Z</time>
      </trkpt>
      <trkpt lat="50.43587" lon="3.34428">
        <ele>17.24659</ele>
        <time>2020-10-01T15:58:06.233Z</time>
      </trkpt>
      <trkpt lat="50.43551" lon="3.34461">
        <ele>17.246326</ele>
        <time>2020-10-01T15:58:12.274Z</time>
      </trkpt>
      <trkpt lat="50.43499" lon="3.34492">
        <ele>17.303879</ele>
        <time>2020-10-01T15:58:20.836Z</time>
      </trkpt>
      <trkpt lat="50.43429" lon="3.34527">
        <ele>17.377836</ele>
        <time>2020-10-01T15:58:32.130Z</time>
      </trkpt>
      <trkpt lat="50.43445" lon="3.34579">
        <ele>17.396587</ele>
        <time>2020-10-01T15:58:37.873Z</time>
      </trkpt>
      <trkpt lat="50.43451" lon="3.34612">
        <ele>17.390939</ele>
        <time>2020-10-01T15:58:41.247Z</time>
      </trkpt>
      <trkpt lat="50.43453" lon="3.34634">
        <ele>17.387415</ele>
        <time>2020-10-01T15:58:43.401Z</time>
      </trkpt>
      <trkpt lat="50.43463" lon="3.34681">
        <ele>17.379356</ele>
        <time>2020-10-01T15:58:48.189Z</time>
      </trkpt>
      <trkpt lat="50.43526" lon="3.34817">
        <ele>17.313271</ele>
        <time>2020-10-01T15:59:03.748Z</time>
      </trkpt>
      <trkpt lat="50.43532" lon="3.34848">
        <ele>17.221189</ele>
        <time>2020-10-01T15:59:06.606Z</time>
      </trkpt>
      <trkpt lat="50.43529" lon="3.34884">
        <ele>17.119686</ele>
        <time>2020-10-01T15:59:09.715Z</time>
      </trkpt>
      <trkpt lat="50.43519" lon="3.34909">
        <ele>17.036083</ele>
        <time>2020-10-01T15:59:12.242Z</time>
      </trkpt>
      <trkpt lat="50.43478" lon="3.34957">
        <ele>16.812664</ele>
        <time>2020-10-01T15:59:18.931Z</time>
      </trkpt>
      <trkpt lat="50.43471" lon="3.34976">
        <ele>16.75186</ele>
        <time>2020-10-01T15:59:20.636Z</time>
      </trkpt>
      <trkpt lat="50.43479" lon="3.35139">
        <ele>16.301213</ele>
        <time>2020-10-01T15:59:34.307Z</time>
      </trkpt>
      <trkpt lat="50.43473" lon="3.35179">
        <ele>16.190867</ele>
        <time>2020-10-01T15:59:37.872Z</time>
      </trkpt>
      <trkpt lat="50.43463" lon="3.35205">
        <ele>16.108488</ele>
        <time>2020-10-01T15:59:40.391Z</time>
      </trkpt>
      <trkpt lat="50.43453" lon="3.35228">
        <ele>16.034985</ele>
        <time>2020-10-01T15:59:42.881Z</time>
      </trkpt>
      <trkpt lat="50.43445" lon="3.35244">
        <ele>15.979246</ele>
        <time>2020-10-01T15:59:44.592Z</time>
      </trkpt>
      <trkpt lat="50.43435" lon="3.35261">
        <ele>15.916861</ele>
        <time>2020-10-01T15:59:46.747Z</time>
      </trkpt>
      <trkpt lat="50.43333" lon="3.35354">
        <ele>15.845328</ele>
        <time>2020-10-01T16:00:03.733Z</time>
      </trkpt>
      <trkpt lat="50.43248" lon="3.35451">
        <ele>15.930632</ele>
        <time>2020-10-01T16:00:20.162Z</time>
      </trkpt>
      <trkpt lat="50.43221" lon="3.35461">
        <ele>16.000126</ele>
        <time>2020-10-01T16:00:24.551Z</time>
      </trkpt>
      <trkpt lat="50.43151" lon="3.35465">
        <ele>16.174885</ele>
        <time>2020-10-01T16:00:35.688Z</time>
      </trkpt>
      <trkpt lat="50.43071" lon="3.35479">
        <ele>16.347671</ele>
        <time>2020-10-01T16:00:48.612Z</time>
      </trkpt>
      <trkpt lat="50.42973" lon="3.35503">
        <ele>16.387159</ele>
        <time>2020-10-01T16:01:03.772Z</time>
      </trkpt>
      <trkpt lat="50.42942" lon="3.35521">
        <ele>16.400627</ele>
        <time>2020-10-01T16:01:08.754Z</time>
      </trkpt>
      <trkpt lat="50.42926" lon="3.35534">
        <ele>16.407702</ele>
        <time>2020-10-01T16:01:11.317Z</time>
      </trkpt>
      <trkpt lat="50.42906" lon="3.35559">
        <ele>16.39906</ele>
        <time>2020-10-01T16:01:14.967Z</time>
      </trkpt>
      <trkpt lat="50.42871" lon="3.3581">
        <ele>16.145611</ele>
        <time>2020-10-01T16:01:38.191Z</time>
      </trkpt>
      <trkpt lat="50.42852" lon="3.35948">
        <ele>16.140668</ele>
        <time>2020-10-01T16:01:51.543Z</time>
      </trkpt>
      <trkpt lat="50.42847" lon="3.35996">
        <ele>16.142643</ele>
        <time>2020-10-01T16:01:56.265Z</time>
      </trkpt>
      <trkpt lat="50.42724" lon="3.36873">
        <ele>16.476073</ele>
        <time>2020-10-01T16:03:22.657Z</time>
      </trkpt>
      <trkpt lat="50.42718" lon="3.36892">
        <ele>16.483236</ele>
        <time>2020-10-01T16:03:24.673Z</time>
      </trkpt>
      <trkpt lat="50.4271" lon="3.36898">
        <ele>16.487883</ele>
        <time>2020-10-01T16:03:25.977Z</time>
      </trkpt>
      <trkpt lat="50.42686" lon="3.36915">
        <ele>16.47603</ele>
        <time>2020-10-01T16:03:29.939Z</time>
      </trkpt>
      <trkpt lat="50.42672" lon="3.36924">
        <ele>16.459363</ele>
        <time>2020-10-01T16:03:32.134Z</time>
      </trkpt>
      <trkpt lat="50.42613" lon="3.36958">
        <ele>16.387538</ele>
        <time>2020-10-01T16:03:41.403Z</time>
      </trkpt>
      <trkpt lat="50.42555" lon="3.36998">
        <ele>16.315826</ele>
        <time>2020-10-01T16:03:50.530Z</time>
      </trkpt>
      <trkpt lat="50.42528" lon="3.37022">
        <ele>16.283862</ele>
        <time>2020-10-01T16:03:54.801Z</time>
      </trkpt>
      <trkpt lat="50.42464" lon="3.37078">
        <ele>16.226889</ele>
        <time>2020-10-01T16:04:04.795Z</time>
      </trkpt>
      <trkpt lat="50.42386" lon="3.37172">
        <ele>16.15128</ele>
        <time>2020-10-01T16:04:19.342Z</time>
      </trkpt>
      <trkpt lat="50.42376" lon="3.37193">
        <ele>16.290455</ele>
        <time>2020-10-01T16:04:22.031Z</time>
      </trkpt>
      <trkpt lat="50.42437" lon="3.37285">
        <ele>16.988873</ele>
        <time>2020-10-01T16:04:37.087Z</time>
      </trkpt>
      <trkpt lat="50.4248" lon="3.37352">
        <ele>17.4919</ele>
        <time>2020-10-01T16:04:48.934Z</time>
      </trkpt>
      <trkpt lat="50.4254" lon="3.37484">
        <ele>18.149456</ele>
        <time>2020-10-01T16:05:09.454Z</time>
      </trkpt>
      <trkpt lat="50.42557" lon="3.37552">
        <ele>18.425811</ele>
        <time>2020-10-01T16:05:17.806Z</time>
      </trkpt>
      <trkpt lat="50.42618" lon="3.37952">
        <ele>17.585047</ele>
        <time>2020-10-01T16:05:52.536Z</time>
      </trkpt>
      <trkpt lat="50.42626" lon="3.38072">
        <ele>17.030434</ele>
        <time>2020-10-01T16:06:02.004Z</time>
      </trkpt>
      <trkpt lat="50.4264" lon="3.38271">
        <ele>16.380316</ele>
        <time>2020-10-01T16:06:18.394Z</time>
      </trkpt>
      <trkpt lat="50.4265" lon="3.38379">
        <ele>16.198595</ele>
        <time>2020-10-01T16:06:28.436Z</time>
      </trkpt>
      <trkpt lat="50.42697" lon="3.38664">
        <ele>16.1946</ele>
        <time>2020-10-01T16:06:57.049Z</time>
      </trkpt>
      <trkpt lat="50.42705" lon="3.3867">
        <ele>16.203553</ele>
        <time>2020-10-01T16:06:58.412Z</time>
      </trkpt>
      <trkpt lat="50.42799" lon="3.38641">
        <ele>16.236978</ele>
        <time>2020-10-01T16:07:13.162Z</time>
      </trkpt>
      <trkpt lat="50.42809" lon="3.38638">
        <ele>16.237182</ele>
        <time>2020-10-01T16:07:14.609Z</time>
      </trkpt>
      <trkpt lat="50.42819" lon="3.38634">
        <ele>16.237391</ele>
        <time>2020-10-01T16:07:16.139Z</time>
      </trkpt>
      <trkpt lat="50.42832" lon="3.38751">
        <ele>16.238851</ele>
        <time>2020-10-01T16:07:27.084Z</time>
      </trkpt>
      <trkpt lat="50.42832" lon="3.38759">
        <ele>16.238949</ele>
        <time>2020-10-01T16:07:27.926Z</time>
      </trkpt>
      <trkpt lat="50.42826" lon="3.38764">
        <ele>16.23909</ele>
        <time>2020-10-01T16:07:29.336Z</time>
      </trkpt>
      <trkpt lat="50.42805" lon="3.38782">
        <ele>16.283347</ele>
        <time>2020-10-01T16:07:34.008Z</time>
      </trkpt>
      <trkpt lat="50.42794" lon="3.38792">
        <ele>16.323351</ele>
        <time>2020-10-01T16:07:36.656Z</time>
      </trkpt>
      <trkpt lat="50.42783" lon="3.38802">
        <ele>16.363451</ele>
        <time>2020-10-01T16:07:39.187Z</time>
      </trkpt>
      <trkpt lat="50.42722" lon="3.3883">
        <ele>16.562028</ele>
        <time>2020-10-01T16:07:52.997Z</time>
      </trkpt>
      <trkpt lat="50.42691" lon="3.38841">
        <ele>16.660439</ele>
        <time>2020-10-01T16:07:59.937Z</time>
      </trkpt>
      <trkpt lat="50.42666" lon="3.38849">
        <ele>16.741589</ele>
        <time>2020-10-01T16:08:05.631Z</time>
      </trkpt>
      <trkpt lat="50.42616" lon="3.38838">
        <ele>17.004056</ele>
        <time>2020-10-01T16:08:13.997Z</time>
      </trkpt>
      <trkpt lat="50.42599" lon="3.3882">
        <ele>17.140058</ele>
        <time>2020-10-01T16:08:17.775Z</time>
      </trkpt>
      <trkpt lat="50.4258" lon="3.388">
        <ele>17.289452</ele>
        <time>2020-10-01T16:08:21.797Z</time>
      </trkpt>
      <trkpt lat="50.42525" lon="3.38725">
        <ele>17.765501</ele>
        <time>2020-10-01T16:08:38.988Z</time>
      </trkpt>
      <trkpt lat="50.42503" lon="3.38701">
        <ele>17.942543</ele>
        <time>2020-10-01T16:08:45.248Z</time>
      </trkpt>
      <trkpt lat="50.42441" lon="3.38625">
        <ele>18.442581</ele>
        <time>2020-10-01T16:09:02.572Z</time>
      </trkpt>
      <trkpt lat="50.42418" lon="3.38629">
        <ele>18.587418</ele>
        <time>2020-10-01T16:09:06.623Z</time>
      </trkpt>
      <trkpt lat="50.4231" lon="3.3867">
        <ele>19.172372</ele>
        <time>2020-10-01T16:09:26.246Z</time>
      </trkpt>
      <trkpt lat="50.42293" lon="3.38672">
        <ele>19.20022</ele>
        <time>2020-10-01T16:09:28.994Z</time>
      </trkpt>
      <trkpt lat="50.42283" lon="3.38673">
        <ele>19.218099</ele>
        <time>2020-10-01T16:09:30.816Z</time>
      </trkpt>
      <trkpt lat="50.42258" lon="3.38689">
        <ele>19.264961</ele>
        <time>2020-10-01T16:09:35.114Z</time>
      </trkpt>
      <trkpt lat="50.42251" lon="3.38693">
        <ele>19.277484</ele>
        <time>2020-10-01T16:09:36.296Z</time>
      </trkpt>
      <trkpt lat="50.422" lon="3.38721">
        <ele>19.370076</ele>
        <time>2020-10-01T16:09:44.172Z</time>
      </trkpt>
      <trkpt lat="50.42173" lon="3.38739">
        <ele>19.419546</ele>
        <time>2020-10-01T16:09:48.334Z</time>
      </trkpt>
      <trkpt lat="50.42138" lon="3.38742">
        <ele>19.347694</ele>
        <time>2020-10-01T16:09:53.403Z</time>
      </trkpt>
      <trkpt lat="50.42102" lon="3.38736">
        <ele>19.235359</ele>
        <time>2020-10-01T16:09:58.240Z</time>
      </trkpt>
      <trkpt lat="50.42089" lon="3.38737">
        <ele>19.194592</ele>
        <time>2020-10-01T16:09:59.943Z</time>
      </trkpt>
      <trkpt lat="50.42075" lon="3.38738">
        <ele>19.1506</ele>
        <time>2020-10-01T16:10:01.794Z</time>
      </trkpt>
      <trkpt lat="50.41986" lon="3.38766">
        <ele>18.866226</ele>
        <time>2020-10-01T16:10:14.248Z</time>
      </trkpt>
      <trkpt lat="50.41972" lon="3.38764">
        <ele>18.828287</ele>
        <time>2020-10-01T16:10:16.130Z</time>
      </trkpt>
      <trkpt lat="50.41942" lon="3.38738">
        <ele>18.733381</ele>
        <time>2020-10-01T16:10:21.031Z</time>
      </trkpt>
      <trkpt lat="50.41898" lon="3.3872">
        <ele>18.607981</ele>
        <time>2020-10-01T16:10:27.519Z</time>
      </trkpt>
      <trkpt lat="50.41825" lon="3.38703">
        <ele>18.405684</ele>
        <time>2020-10-01T16:10:37.455Z</time>
      </trkpt>
      <trkpt lat="50.418" lon="3.38696">
        <ele>18.348566</ele>
        <time>2020-10-01T16:10:41.027Z</time>
      </trkpt>
      <trkpt lat="50.41739" lon="3.38687">
        <ele>18.236715</ele>
        <time>2020-10-01T16:10:49.473Z</time>
      </trkpt>
      <trkpt lat="50.41725" lon="3.38688">
        <ele>18.210277</ele>
        <time>2020-10-01T16:10:51.651Z</time>
      </trkpt>
      <trkpt lat="50.41711" lon="3.38698">
        <ele>18.182018</ele>
        <time>2020-10-01T16:10:53.707Z</time>
      </trkpt>
      <trkpt lat="50.41693" lon="3.38735">
        <ele>18.128491</ele>
        <time>2020-10-01T16:10:58.011Z</time>
      </trkpt>
      <trkpt lat="50.41677" lon="3.38721">
        <ele>18.095122</ele>
        <time>2020-10-01T16:11:00.721Z</time>
      </trkpt>
      <trkpt lat="50.41656" lon="3.38713">
        <ele>18.054792</ele>
        <time>2020-10-01T16:11:03.755Z</time>
      </trkpt>
      <trkpt lat="50.41626" lon="3.38688">
        <ele>18.027295</ele>
        <time>2020-10-01T16:11:08.599Z</time>
      </trkpt>
      <trkpt lat="50.41598" lon="3.38667">
        <ele>18.007658</ele>
        <time>2020-10-01T16:11:13.282Z</time>
      </trkpt>
      <trkpt lat="50.41566" lon="3.38641">
        <ele>17.98511</ele>
        <time>2020-10-01T16:11:18.719Z</time>
      </trkpt>
      <trkpt lat="50.41522" lon="3.38604">
        <ele>17.953266</ele>
        <time>2020-10-01T16:11:26.446Z</time>
      </trkpt>
      <trkpt lat="50.4141" lon="3.38573">
        <ele>17.546675</ele>
        <time>2020-10-01T16:11:42.045Z</time>
      </trkpt>
      <trkpt lat="50.41295" lon="3.38499">
        <ele>16.986169</ele>
        <time>2020-10-01T16:11:58.013Z</time>
      </trkpt>
      <trkpt lat="50.4119" lon="3.38461">
        <ele>16.632612</ele>
        <time>2020-10-01T16:12:12.241Z</time>
      </trkpt>
      <trkpt lat="50.41026" lon="3.38342">
        <ele>17.531146</ele>
        <time>2020-10-01T16:12:40.934Z</time>
      </trkpt>
      <trkpt lat="50.41008" lon="3.3834">
        <ele>17.677894</ele>
        <time>2020-10-01T16:12:45.168Z</time>
      </trkpt>
      <trkpt lat="50.40909" lon="3.38386">
        <ele>19.357427</ele>
        <time>2020-10-01T16:13:09.316Z</time>
      </trkpt>
      <trkpt lat="50.4089" lon="3.38395">
        <ele>19.744871</ele>
        <time>2020-10-01T16:13:13.429Z</time>
      </trkpt>
      <trkpt lat="50.40886" lon="3.38394">
        <ele>19.833463</ele>
        <time>2020-10-01T16:13:15.055Z</time>
      </trkpt>
      <trkpt lat="50.40881" lon="3.38394">
        <ele>19.923916</ele>
        <time>2020-10-01T16:13:16.569Z</time>
      </trkpt>
      <trkpt lat="50.40837" lon="3.38361">
        <ele>20.882346</ele>
        <time>2020-10-01T16:13:28.240Z</time>
      </trkpt>
      <trkpt lat="50.40482" lon="3.38043">
        <ele>25.784714</ele>
        <time>2020-10-01T16:14:49.023Z</time>
      </trkpt>
      <trkpt lat="50.40219" lon="3.37809">
        <ele>24.855295</ele>
        <time>2020-10-01T16:15:29.511Z</time>
      </trkpt>
      <trkpt lat="50.40193" lon="3.37783">
        <ele>24.701446</ele>
        <time>2020-10-01T16:15:33.549Z</time>
      </trkpt>
      <trkpt lat="50.40172" lon="3.37767">
        <ele>24.629081</ele>
        <time>2020-10-01T16:15:36.527Z</time>
      </trkpt>
      <trkpt lat="50.40147" lon="3.37751">
        <ele>24.560007</ele>
        <time>2020-10-01T16:15:40.173Z</time>
      </trkpt>
      <trkpt lat="50.40104" lon="3.37745">
        <ele>24.451295</ele>
        <time>2020-10-01T16:15:46.068Z</time>
      </trkpt>
      <trkpt lat="50.39974" lon="3.37765">
        <ele>23.762579</ele>
        <time>2020-10-01T16:16:05.471Z</time>
      </trkpt>
      <trkpt lat="50.39895" lon="3.37777">
        <ele>22.834196</ele>
        <time>2020-10-01T16:16:14.942Z</time>
      </trkpt>
      <trkpt lat="50.39837" lon="3.37772">
        <ele>22.155879</ele>
        <time>2020-10-01T16:16:21.359Z</time>
      </trkpt>
      <trkpt lat="50.39779" lon="3.3776">
        <ele>20.935345</ele>
        <time>2020-10-01T16:16:27.685Z</time>
      </trkpt>
      <trkpt lat="50.3975" lon="3.37767">
        <ele>20.300343</ele>
        <time>2020-10-01T16:16:30.772Z</time>
      </trkpt>
      <trkpt lat="50.39703" lon="3.37776">
        <ele>19.277908</ele>
        <time>2020-10-01T16:16:35.737Z</time>
      </trkpt>
      <trkpt lat="50.39665" lon="3.37774">
        <ele>18.445977</ele>
        <time>2020-10-01T16:16:39.927Z</time>
      </trkpt>
      <trkpt lat="50.39604" lon="3.37752">
        <ele>17.820125</ele>
        <time>2020-10-01T16:16:47.213Z</time>
      </trkpt>
      <trkpt lat="50.39585" lon="3.37737">
        <ele>17.657418</ele>
        <time>2020-10-01T16:16:49.974Z</time>
      </trkpt>
      <trkpt lat="50.39506" lon="3.37622">
        <ele>16.824667</ele>
        <time>2020-10-01T16:17:04.622Z</time>
      </trkpt>
      <trkpt lat="50.39481" lon="3.37593">
        <ele>16.753114</ele>
        <time>2020-10-01T16:17:09.080Z</time>
      </trkpt>
      <trkpt lat="50.39236" lon="3.37444">
        <ele>16.202248</ele>
        <time>2020-10-01T16:17:46.127Z</time>
      </trkpt>
      <trkpt lat="50.3908" lon="3.37379">
        <ele>15.930707</ele>
        <time>2020-10-01T16:18:08.868Z</time>
      </trkpt>
      <trkpt lat="50.39067" lon="3.37372">
        <ele>15.910267</ele>
        <time>2020-10-01T16:18:10.703Z</time>
      </trkpt>
      <trkpt lat="50.39061" lon="3.37368">
        <ele>15.899959</ele>
        <time>2020-10-01T16:18:11.759Z</time>
      </trkpt>
      <trkpt lat="50.39047" lon="3.37357">
        <ele>15.875524</ele>
        <time>2020-10-01T16:18:14.077Z</time>
      </trkpt>
      <trkpt lat="50.3896" lon="3.37264">
        <ele>15.722371</ele>
        <time>2020-10-01T16:18:29.418Z</time>
      </trkpt>
      <trkpt lat="50.38561" lon="3.36835">
        <ele>15.082189</ele>
        <time>2020-10-01T16:19:38.501Z</time>
      </trkpt>
      <trkpt lat="50.3816" lon="3.36428">
        <ele>16.135386</ele>
        <time>2020-10-01T16:20:53.158Z</time>
      </trkpt>
      <trkpt lat="50.37975" lon="3.36313">
        <ele>17.190974</ele>
        <time>2020-10-01T16:21:28.450Z</time>
      </trkpt>
      <trkpt lat="50.37926" lon="3.36278">
        <ele>17.417264</ele>
        <time>2020-10-01T16:21:37.211Z</time>
      </trkpt>
      <trkpt lat="50.37905" lon="3.36518">
        <ele>17.237806</ele>
        <time>2020-10-01T16:21:59.248Z</time>
      </trkpt>
      <trkpt lat="50.3779" lon="3.3675">
        <ele>16.764095</ele>
        <time>2020-10-01T16:22:24.615Z</time>
      </trkpt>
      <trkpt lat="50.37612" lon="3.37063">
        <ele>17.574634</ele>
        <time>2020-10-01T16:23:07.409Z</time>
      </trkpt>
      <trkpt lat="50.37595" lon="3.37101">
        <ele>17.725073</ele>
        <time>2020-10-01T16:23:12.487Z</time>
      </trkpt>
      <trkpt lat="50.37566" lon="3.37222">
        <ele>18.195622</ele>
        <time>2020-10-01T16:23:27.053Z</time>
      </trkpt>
      <trkpt lat="50.3756" lon="3.37267">
        <ele>18.449697</ele>
        <time>2020-10-01T16:23:32.470Z</time>
      </trkpt>
      <trkpt lat="50.37576" lon="3.37326">
        <ele>18.799619</ele>
        <time>2020-10-01T16:23:40.211Z</time>
      </trkpt>
      <trkpt lat="50.37583" lon="3.37352">
        <ele>18.94911</ele>
        <time>2020-10-01T16:23:43.463Z</time>
      </trkpt>
      <trkpt lat="50.37591" lon="3.37398">
        <ele>19.210018</ele>
        <time>2020-10-01T16:23:49.295Z</time>
      </trkpt>
      <trkpt lat="50.37588" lon="3.37493">
        <ele>19.674938</ele>
        <time>2020-10-01T16:24:00.273Z</time>
      </trkpt>
      <trkpt lat="50.37594" lon="3.37543">
        <ele>19.837316</ele>
        <time>2020-10-01T16:24:05.911Z</time>
      </trkpt>
      <trkpt lat="50.37593" lon="3.37556">
        <ele>19.877266</ele>
        <time>2020-10-01T16:24:07.604Z</time>
      </trkpt>
      <trkpt lat="50.37589" lon="3.37562">
        <ele>19.904238</ele>
        <time>2020-10-01T16:24:08.423Z</time>
      </trkpt>
      <trkpt lat="50.37555" lon="3.37583">
        <ele>20.090501</ele>
        <time>2020-10-01T16:24:14.973Z</time>
      </trkpt>
      <trkpt lat="50.37543" lon="3.37598">
        <ele>20.167672</ele>
        <time>2020-10-01T16:24:17.419Z</time>
      </trkpt>
      <trkpt lat="50.37528" lon="3.37697">
        <ele>20.49168</ele>
        <time>2020-10-01T16:24:27.901Z</time>
      </trkpt>
      <trkpt lat="50.37491" lon="3.3782">
        <ele>20.451596</ele>
        <time>2020-10-01T16:24:40.511Z</time>
      </trkpt>
      <trkpt lat="50.37484" lon="3.37907">
        <ele>20.418361</ele>
        <time>2020-10-01T16:24:48.579Z</time>
      </trkpt>
      <trkpt lat="50.37477" lon="3.38038">
        <ele>20.441213</ele>
        <time>2020-10-01T16:25:00.799Z</time>
      </trkpt>
      <trkpt lat="50.37474" lon="3.38066">
        <ele>20.460122</ele>
        <time>2020-10-01T16:25:03.376Z</time>
      </trkpt>
      <trkpt lat="50.37451" lon="3.38183">
        <ele>20.540155</ele>
        <time>2020-10-01T16:25:15.065Z</time>
      </trkpt>
      <trkpt lat="50.37442" lon="3.38228">
        <ele>20.570949</ele>
        <time>2020-10-01T16:25:19.834Z</time>
      </trkpt>
      <trkpt lat="50.3743" lon="3.38254">
        <ele>20.652722</ele>
        <time>2020-10-01T16:25:23.302Z</time>
      </trkpt>
      <trkpt lat="50.3742" lon="3.38271">
        <ele>20.744053</ele>
        <time>2020-10-01T16:25:25.695Z</time>
      </trkpt>
      <trkpt lat="50.3741" lon="3.38277">
        <ele>20.814016</ele>
        <time>2020-10-01T16:25:27.589Z</time>
      </trkpt>
      <trkpt lat="50.37397" lon="3.38286">
        <ele>20.899633</ele>
        <time>2020-10-01T16:25:29.990Z</time>
      </trkpt>
      <trkpt lat="50.37366" lon="3.38335">
        <ele>21.176406</ele>
        <time>2020-10-01T16:25:37.549Z</time>
      </trkpt>
      <trkpt lat="50.37317" lon="3.38457">
        <ele>21.771205</ele>
        <time>2020-10-01T16:25:54.040Z</time>
      </trkpt>
      <trkpt lat="50.37282" lon="3.38607">
        <ele>22.704414</ele>
        <time>2020-10-01T16:26:13.611Z</time>
      </trkpt>
      <trkpt lat="50.37264" lon="3.38679">
        <ele>23.153634</ele>
        <time>2020-10-01T16:26:22.820Z</time>
      </trkpt>
      <trkpt lat="50.37253" lon="3.3882">
        <ele>23.438601</ele>
        <time>2020-10-01T16:26:38.338Z</time>
      </trkpt>
      <trkpt lat="50.37246" lon="3.38933">
        <ele>23.530299</ele>
        <time>2020-10-01T16:26:49.053Z</time>
      </trkpt>
      <trkpt lat="50.37258" lon="3.38943">
        <ele>23.547545</ele>
        <time>2020-10-01T16:26:50.925Z</time>
      </trkpt>
      <trkpt lat="50.37265" lon="3.38948">
        <ele>23.556991</ele>
        <time>2020-10-01T16:26:51.979Z</time>
      </trkpt>
      <trkpt lat="50.37266" lon="3.38948">
        <ele>23.557664</ele>
        <time>2020-10-01T16:26:52.037Z</time>
      </trkpt>
      <trkpt lat="50.37283" lon="3.38972">
        <ele>23.542042</ele>
        <time>2020-10-01T16:26:55.152Z</time>
      </trkpt>
      <trkpt lat="50.37284" lon="3.38974">
        <ele>23.531779</ele>
        <time>2020-10-01T16:26:55.403Z</time>
      </trkpt>
      <trkpt lat="50.37285" lon="3.38975">
        <ele>23.524509</ele>
        <time>2020-10-01T16:26:55.586Z</time>
      </trkpt>
      <trkpt lat="50.37289" lon="3.38988">
        <ele>23.471708</ele>
        <time>2020-10-01T16:26:56.856Z</time>
      </trkpt>
      <trkpt lat="50.37293" lon="3.39004">
        <ele>23.412002</ele>
        <time>2020-10-01T16:26:58.224Z</time>
      </trkpt>
      <trkpt lat="50.37297" lon="3.39024">
        <ele>23.337854</ele>
        <time>2020-10-01T16:26:59.939Z</time>
      </trkpt>
      <trkpt lat="50.37302" lon="3.39045">
        <ele>23.258255</ele>
        <time>2020-10-01T16:27:01.851Z</time>
      </trkpt>
      <trkpt lat="50.37302" lon="3.39049">
        <ele>23.245318</ele>
        <time>2020-10-01T16:27:02.164Z</time>
      </trkpt>
      <trkpt lat="50.37303" lon="3.39055">
        <ele>23.222002</ele>
        <time>2020-10-01T16:27:02.677Z</time>
      </trkpt>
      <trkpt lat="50.37336" lon="3.39207">
        <ele>22.648656</ele>
        <time>2020-10-01T16:27:15.919Z</time>
      </trkpt>
      <trkpt lat="50.37337" lon="3.3923">
        <ele>22.565338</ele>
        <time>2020-10-01T16:27:17.787Z</time>
      </trkpt>
      <trkpt lat="50.37337" lon="3.39254">
        <ele>22.489056</ele>
        <time>2020-10-01T16:27:19.881Z</time>
      </trkpt>
      <trkpt lat="50.37338" lon="3.39278">
        <ele>22.409669</ele>
        <time>2020-10-01T16:27:21.953Z</time>
      </trkpt>
      <trkpt lat="50.37338" lon="3.39291">
        <ele>22.36858</ele>
        <time>2020-10-01T16:27:22.978Z</time>
      </trkpt>
      <trkpt lat="50.37333" lon="3.39322">
        <ele>22.264307</ele>
        <time>2020-10-01T16:27:25.867Z</time>
      </trkpt>
      <trkpt lat="50.37333" lon="3.39334">
        <ele>22.225189</ele>
        <time>2020-10-01T16:27:26.899Z</time>
      </trkpt>
      <trkpt lat="50.37333" lon="3.39339">
        <ele>22.209213</ele>
        <time>2020-10-01T16:27:27.262Z</time>
      </trkpt>
      <trkpt lat="50.37349" lon="3.39417">
        <ele>21.941429</ele>
        <time>2020-10-01T16:27:34.455Z</time>
      </trkpt>
      <trkpt lat="50.37385" lon="3.39698">
        <ele>20.903457</ele>
        <time>2020-10-01T16:27:58.222Z</time>
      </trkpt>
      <trkpt lat="50.37387" lon="3.39732">
        <ele>20.77382</ele>
        <time>2020-10-01T16:28:01.020Z</time>
      </trkpt>
      <trkpt lat="50.37387" lon="3.39738">
        <ele>20.747985</ele>
        <time>2020-10-01T16:28:01.527Z</time>
      </trkpt>
      <trkpt lat="50.37389" lon="3.39795">
        <ele>20.558703</ele>
        <time>2020-10-01T16:28:06.288Z</time>
      </trkpt>
      <trkpt lat="50.37397" lon="3.39866">
        <ele>20.426991</ele>
        <time>2020-10-01T16:28:12.561Z</time>
      </trkpt>
      <trkpt lat="50.37404" lon="3.39898">
        <ele>20.366659</ele>
        <time>2020-10-01T16:28:15.360Z</time>
      </trkpt>
      <trkpt lat="50.37414" lon="3.39946">
        <ele>20.275448</ele>
        <time>2020-10-01T16:28:19.682Z</time>
      </trkpt>
      <trkpt lat="50.37416" lon="3.39959">
        <ele>20.250664</ele>
        <time>2020-10-01T16:28:20.821Z</time>
      </trkpt>
      <trkpt lat="50.3742" lon="3.39985">
        <ele>20.201626</ele>
        <time>2020-10-01T16:28:23.284Z</time>
      </trkpt>
      <trkpt lat="50.37423" lon="3.4001">
        <ele>20.154101</ele>
        <time>2020-10-01T16:28:25.680Z</time>
      </trkpt>
      <trkpt lat="50.37423" lon="3.40015">
        <ele>20.14471</ele>
        <time>2020-10-01T16:28:26.199Z</time>
      </trkpt>
      <trkpt lat="50.37423" lon="3.40021">
        <ele>20.135038</ele>
        <time>2020-10-01T16:28:26.695Z</time>
      </trkpt>
      <trkpt lat="50.37424" lon="3.40026">
        <ele>20.125476</ele>
        <time>2020-10-01T16:28:27.201Z</time>
      </trkpt>
      <trkpt lat="50.37426" lon="3.4003">
        <ele>20.116095</ele>
        <time>2020-10-01T16:28:27.685Z</time>
      </trkpt>
      <trkpt lat="50.37432" lon="3.40035">
        <ele>20.097188</ele>
        <time>2020-10-01T16:28:28.581Z</time>
      </trkpt>
      <trkpt lat="50.37433" lon="3.40035">
        <ele>20.093457</ele>
        <time>2020-10-01T16:28:28.771Z</time>
      </trkpt>
      <trkpt lat="50.37435" lon="3.40035">
        <ele>20.088571</ele>
        <time>2020-10-01T16:28:29.005Z</time>
      </trkpt>
      <trkpt lat="50.37438" lon="3.40035">
        <ele>20.079878</ele>
        <time>2020-10-01T16:28:29.490Z</time>
      </trkpt>
      <trkpt lat="50.3744" lon="3.40033">
        <ele>20.071348</ele>
        <time>2020-10-01T16:28:29.983Z</time>
      </trkpt>
      <trkpt lat="50.37446" lon="3.4004">
        <ele>20.102454</ele>
        <time>2020-10-01T16:28:31.374Z</time>
      </trkpt>
      <trkpt lat="50.37457" lon="3.40047">
        <ele>20.150869</ele>
        <time>2020-10-01T16:28:33.086Z</time>
      </trkpt>
      <trkpt lat="50.37478" lon="3.40073">
        <ele>20.270465</ele>
        <time>2020-10-01T16:28:37.449Z</time>
      </trkpt>
      <trkpt lat="50.37543" lon="3.40136">
        <ele>20.603483</ele>
        <time>2020-10-01T16:28:50.222Z</time>
      </trkpt>
      <trkpt lat="50.37556" lon="3.40149">
        <ele>20.672079</ele>
        <time>2020-10-01T16:28:52.722Z</time>
      </trkpt>
      <trkpt lat="50.37567" lon="3.40159">
        <ele>20.727447</ele>
        <time>2020-10-01T16:28:55.061Z</time>
      </trkpt>
      <trkpt lat="50.37797" lon="3.40468">
        <ele>22.886892</ele>
        <time>2020-10-01T16:29:48.949Z</time>
      </trkpt>
      <trkpt lat="50.37818" lon="3.40501">
        <ele>23.107268</ele>
        <time>2020-10-01T16:29:54.368Z</time>
      </trkpt>
      <trkpt lat="50.37819" lon="3.40504">
        <ele>23.125497</ele>
        <time>2020-10-01T16:29:54.809Z</time>
      </trkpt>
      <trkpt lat="50.37877" lon="3.40603">
        <ele>23.668914</ele>
        <time>2020-10-01T16:30:10.257Z</time>
      </trkpt>
      <trkpt lat="50.37943" lon="3.40726">
        <ele>24.122713</ele>
        <time>2020-10-01T16:30:27.692Z</time>
      </trkpt>
      <trkpt lat="50.38039" lon="3.40842">
        <ele>24.22861</ele>
        <time>2020-10-01T16:30:45.452Z</time>
      </trkpt>
      <trkpt lat="50.38041" lon="3.4085">
        <ele>24.220947</ele>
        <time>2020-10-01T16:30:46.338Z</time>
      </trkpt>
      <trkpt lat="50.38039" lon="3.40861">
        <ele>24.212104</ele>
        <time>2020-10-01T16:30:47.170Z</time>
      </trkpt>
      <trkpt lat="50.37925" lon="3.41071">
        <ele>24.146618</ele>
        <time>2020-10-01T16:31:12.052Z</time>
      </trkpt>
      <trkpt lat="50.37911" lon="3.41076">
        <ele>24.156557</ele>
        <time>2020-10-01T16:31:14.269Z</time>
      </trkpt>
      <trkpt lat="50.37859" lon="3.41035">
        <ele>24.196169</ele>
        <time>2020-10-01T16:31:23.366Z</time>
      </trkpt>
      <trkpt lat="50.37843" lon="3.41029">
        <ele>24.207948</ele>
        <time>2020-10-01T16:31:26.176Z</time>
      </trkpt>
      <trkpt lat="50.37826" lon="3.41033">
        <ele>24.273887</ele>
        <time>2020-10-01T16:31:28.993Z</time>
      </trkpt>
      <trkpt lat="50.37762" lon="3.41123">
        <ele>24.801081</ele>
        <time>2020-10-01T16:31:43.608Z</time>
      </trkpt>
      <trkpt lat="50.37736" lon="3.41176">
        <ele>25.06543</ele>
        <time>2020-10-01T16:31:51.237Z</time>
      </trkpt>
      <trkpt lat="50.37696" lon="3.41281">
        <ele>25.650357</ele>
        <time>2020-10-01T16:32:05.251Z</time>
      </trkpt>
      <trkpt lat="50.37694" lon="3.41304">
        <ele>25.783811</ele>
        <time>2020-10-01T16:32:07.878Z</time>
      </trkpt>
      <trkpt lat="50.377" lon="3.41342">
        <ele>26.00321</ele>
        <time>2020-10-01T16:32:12.273Z</time>
      </trkpt>
      <trkpt lat="50.37704" lon="3.41375">
        <ele>26.198023</ele>
        <time>2020-10-01T16:32:16.143Z</time>
      </trkpt>
      <trkpt lat="50.37746" lon="3.41646">
        <ele>28.071381</ele>
        <time>2020-10-01T16:32:49.917Z</time>
      </trkpt>
      <trkpt lat="50.3777" lon="3.4177">
        <ele>29.066897</ele>
        <time>2020-10-01T16:33:06.774Z</time>
      </trkpt>
      <trkpt lat="50.37771" lon="3.41789">
        <ele>29.253587</ele>
        <time>2020-10-01T16:33:09.432Z</time>
      </trkpt>
      <trkpt lat="50.3778" lon="3.41928">
        <ele>30.74862</ele>
        <time>2020-10-01T16:33:28.270Z</time>
      </trkpt>
      <trkpt lat="50.37747" lon="3.42069">
        <ele>32.357219</ele>
        <time>2020-10-01T16:33:49.322Z</time>
      </trkpt>
      <trkpt lat="50.37748" lon="3.42073">
        <ele>32.401454</ele>
        <time>2020-10-01T16:33:50.026Z</time>
      </trkpt>
      <trkpt lat="50.37767" lon="3.42209">
        <ele>33.976842</ele>
        <time>2020-10-01T16:34:10.504Z</time>
      </trkpt>
      <trkpt lat="50.37788" lon="3.42365">
        <ele>35.493425</ele>
        <time>2020-10-01T16:34:31.937Z</time>
      </trkpt>
      <trkpt lat="50.37791" lon="3.42386">
        <ele>35.597259</ele>
        <time>2020-10-01T16:34:34.364Z</time>
      </trkpt>
      <trkpt lat="50.37799" lon="3.42451">
        <ele>35.927657</ele>
        <time>2020-10-01T16:34:42.405Z</time>
      </trkpt>
      <trkpt lat="50.37813" lon="3.42554">
        <ele>36.446184</ele>
        <time>2020-10-01T16:34:53.796Z</time>
      </trkpt>
      <trkpt lat="50.37821" lon="3.42619">
        <ele>36.705678</ele>
        <time>2020-10-01T16:34:59.966Z</time>
      </trkpt>
      <trkpt lat="50.37824" lon="3.42628">
        <ele>36.724783</ele>
        <time>2020-10-01T16:35:00.988Z</time>
      </trkpt>
      <trkpt lat="50.37882" lon="3.42822">
        <ele>37.115895</ele>
        <time>2020-10-01T16:35:22.500Z</time>
      </trkpt>
      <trkpt lat="50.37902" lon="3.42919">
        <ele>37.393348</ele>
        <time>2020-10-01T16:35:33.901Z</time>
      </trkpt>
      <trkpt lat="50.37915" lon="3.43014">
        <ele>37.700975</ele>
        <time>2020-10-01T16:35:44.252Z</time>
      </trkpt>
      <trkpt lat="50.37912" lon="3.43102">
        <ele>37.981183</ele>
        <time>2020-10-01T16:35:53.652Z</time>
      </trkpt>
      <trkpt lat="50.37976" lon="3.43098">
        <ele>38.30609</ele>
        <time>2020-10-01T16:36:04.360Z</time>
      </trkpt>
      <trkpt lat="50.38007" lon="3.43097">
        <ele>38.462647</ele>
        <time>2020-10-01T16:36:09.582Z</time>
      </trkpt>
      <trkpt lat="50.38014" lon="3.43097">
        <ele>38.498772</ele>
        <time>2020-10-01T16:36:10.811Z</time>
      </trkpt>
      <trkpt lat="50.38105" lon="3.4309">
        <ele>38.96235</ele>
        <time>2020-10-01T16:36:26.048Z</time>
      </trkpt>
      <trkpt lat="50.3812" lon="3.43089">
        <ele>39.042986</ele>
        <time>2020-10-01T16:36:28.717Z</time>
      </trkpt>
      <trkpt lat="50.3813" lon="3.43088">
        <ele>39.093134</ele>
        <time>2020-10-01T16:36:30.337Z</time>
      </trkpt>
      <trkpt lat="50.38166" lon="3.43086">
        <ele>39.288903</ele>
        <time>2020-10-01T16:36:36.811Z</time>
      </trkpt>
      <trkpt lat="50.38224" lon="3.43027">
        <ele>39.653924</ele>
        <time>2020-10-01T16:36:49.188Z</time>
      </trkpt>
      <trkpt lat="50.38323" lon="3.42924">
        <ele>39.468411</ele>
        <time>2020-10-01T16:37:07.675Z</time>
      </trkpt>
      <trkpt lat="50.38344" lon="3.42902">
        <ele>39.275262</ele>
        <time>2020-10-01T16:37:10.902Z</time>
      </trkpt>
      <trkpt lat="50.38359" lon="3.42887">
        <ele>39.140964</ele>
        <time>2020-10-01T16:37:12.916Z</time>
      </trkpt>
      <trkpt lat="50.3847" lon="3.4277">
        <ele>37.613581</ele>
        <time>2020-10-01T16:37:28.572Z</time>
      </trkpt>
      <trkpt lat="50.38476" lon="3.42764">
        <ele>37.50335</ele>
        <time>2020-10-01T16:37:29.252Z</time>
      </trkpt>
      <trkpt lat="50.3852" lon="3.42718">
        <ele>36.658077</ele>
        <time>2020-10-01T16:37:35.180Z</time>
      </trkpt>
      <trkpt lat="50.38559" lon="3.42677">
        <ele>35.914322</ele>
        <time>2020-10-01T16:37:40.515Z</time>
      </trkpt>
      <trkpt lat="50.38564" lon="3.42672">
        <ele>35.812804</ele>
        <time>2020-10-01T16:37:41.152Z</time>
      </trkpt>
      <trkpt lat="50.38575" lon="3.4266">
        <ele>35.637762</ele>
        <time>2020-10-01T16:37:42.709Z</time>
      </trkpt>
      <trkpt lat="50.38619" lon="3.42614">
        <ele>35.056314</ele>
        <time>2020-10-01T16:37:49.171Z</time>
      </trkpt>
      <trkpt lat="50.38749" lon="3.42477">
        <ele>33.51804</ele>
        <time>2020-10-01T16:38:08.518Z</time>
      </trkpt>
      <trkpt lat="50.38791" lon="3.42435">
        <ele>33.209092</ele>
        <time>2020-10-01T16:38:14.622Z</time>
      </trkpt>
      <trkpt lat="50.38802" lon="3.42425">
        <ele>33.12837</ele>
        <time>2020-10-01T16:38:16.312Z</time>
      </trkpt>
      <trkpt lat="50.38807" lon="3.4242">
        <ele>33.093385</ele>
        <time>2020-10-01T16:38:17.065Z</time>
      </trkpt>
      <trkpt lat="50.38813" lon="3.42413">
        <ele>33.046208</ele>
        <time>2020-10-01T16:38:18.088Z</time>
      </trkpt>
      <trkpt lat="50.38818" lon="3.42412">
        <ele>33.013441</ele>
        <time>2020-10-01T16:38:18.710Z</time>
      </trkpt>
      <trkpt lat="50.38829" lon="3.42419">
        <ele>32.941621</ele>
        <time>2020-10-01T16:38:20.211Z</time>
      </trkpt>
      <trkpt lat="50.38835" lon="3.42441">
        <ele>32.846124</ele>
        <time>2020-10-01T16:38:22.336Z</time>
      </trkpt>
      <trkpt lat="50.38839" lon="3.42473">
        <ele>32.716844</ele>
        <time>2020-10-01T16:38:25.044Z</time>
      </trkpt>
      <trkpt lat="50.38837" lon="3.42502">
        <ele>32.647196</ele>
        <time>2020-10-01T16:38:27.692Z</time>
      </trkpt>
      <trkpt lat="50.38837" lon="3.42521">
        <ele>32.722225</ele>
        <time>2020-10-01T16:38:29.250Z</time>
      </trkpt>
      <trkpt lat="50.38839" lon="3.42545">
        <ele>32.81679</ele>
        <time>2020-10-01T16:38:31.472Z</time>
      </trkpt>
      <trkpt lat="50.38893" lon="3.43025">
        <ele>35.191459</ele>
        <time>2020-10-01T16:39:29.143Z</time>
      </trkpt>
      <trkpt lat="50.38912" lon="3.43203">
        <ele>35.794789</ele>
        <time>2020-10-01T16:39:50.102Z</time>
      </trkpt>
      <trkpt lat="50.38922" lon="3.43284">
        <ele>36.037402</ele>
        <time>2020-10-01T16:39:58.424Z</time>
      </trkpt>
      <trkpt lat="50.38927" lon="3.43318">
        <ele>36.139233</ele>
        <time>2020-10-01T16:40:01.783Z</time>
      </trkpt>
      <trkpt lat="50.38929" lon="3.43324">
        <ele>36.156338</ele>
        <time>2020-10-01T16:40:02.293Z</time>
      </trkpt>
      <trkpt lat="50.38934" lon="3.43346">
        <ele>36.148659</ele>
        <time>2020-10-01T16:40:04.352Z</time>
      </trkpt>
      <trkpt lat="50.38942" lon="3.43442">
        <ele>36.008445</ele>
        <time>2020-10-01T16:40:12.734Z</time>
      </trkpt>
      <trkpt lat="50.38953" lon="3.43549">
        <ele>35.850553</ele>
        <time>2020-10-01T16:40:21.916Z</time>
      </trkpt>
      <trkpt lat="50.38966" lon="3.43669">
        <ele>35.871555</ele>
        <time>2020-10-01T16:40:33.967Z</time>
      </trkpt>
      <trkpt lat="50.39006" lon="3.44058">
        <ele>36.241238</ele>
        <time>2020-10-01T16:41:14.527Z</time>
      </trkpt>
      <trkpt lat="50.3902" lon="3.44273">
        <ele>35.860594</ele>
        <time>2020-10-01T16:41:32.796Z</time>
      </trkpt>
      <trkpt lat="50.39034" lon="3.44401">
        <ele>35.409794</ele>
        <time>2020-10-01T16:41:43.389Z</time>
      </trkpt>
      <trkpt lat="50.39063" lon="3.44492">
        <ele>35.288962</ele>
        <time>2020-10-01T16:41:52.074Z</time>
      </trkpt>
      <trkpt lat="50.39233" lon="3.44838">
        <ele>36.003123</ele>
        <time>2020-10-01T16:42:36.742Z</time>
      </trkpt>
      <trkpt lat="50.39253" lon="3.44865">
        <ele>36.117537</ele>
        <time>2020-10-01T16:42:41.608Z</time>
      </trkpt>
      <trkpt lat="50.39266" lon="3.44877">
        <ele>36.181279</ele>
        <time>2020-10-01T16:42:44.221Z</time>
      </trkpt>
      <trkpt lat="50.39276" lon="3.44883">
        <ele>36.204022</ele>
        <time>2020-10-01T16:42:46.513Z</time>
      </trkpt>
      <trkpt lat="50.39322" lon="3.44893">
        <ele>36.254105</ele>
        <time>2020-10-01T16:42:54.990Z</time>
      </trkpt>
      <trkpt lat="50.39495" lon="3.44876">
        <ele>35.610859</ele>
        <time>2020-10-01T16:43:19.666Z</time>
      </trkpt>
      <trkpt lat="50.39602" lon="3.4486">
        <ele>33.873013</ele>
        <time>2020-10-01T16:43:31.368Z</time>
      </trkpt>
      <trkpt lat="50.39618" lon="3.44862">
        <ele>33.626812</ele>
        <time>2020-10-01T16:43:32.896Z</time>
      </trkpt>
      <trkpt lat="50.39638" lon="3.44871">
        <ele>33.221733</ele>
        <time>2020-10-01T16:43:35.419Z</time>
      </trkpt>
      <trkpt lat="50.39645" lon="3.44881">
        <ele>33.02426</ele>
        <time>2020-10-01T16:43:36.343Z</time>
      </trkpt>
      <trkpt lat="50.39649" lon="3.44889">
        <ele>32.889954</ele>
        <time>2020-10-01T16:43:37.000Z</time>
      </trkpt>
      <trkpt lat="50.39693" lon="3.44996">
        <ele>31.18177</ele>
        <time>2020-10-01T16:43:45.787Z</time>
      </trkpt>
      <trkpt lat="50.39728" lon="3.45083">
        <ele>29.782735</ele>
        <time>2020-10-01T16:43:53.063Z</time>
      </trkpt>
      <trkpt lat="50.39744" lon="3.45125">
        <ele>29.160678</ele>
        <time>2020-10-01T16:43:56.659Z</time>
      </trkpt>
      <trkpt lat="50.3978" lon="3.45195">
        <ele>28.034947</ele>
        <time>2020-10-01T16:44:03.023Z</time>
      </trkpt>
      <trkpt lat="50.39869" lon="3.45287">
        <ele>26.015451</ele>
        <time>2020-10-01T16:44:14.579Z</time>
      </trkpt>
      <trkpt lat="50.39893" lon="3.45321">
        <ele>25.647948</ele>
        <time>2020-10-01T16:44:18.146Z</time>
      </trkpt>
      <trkpt lat="50.39907" lon="3.45359">
        <ele>25.324631</ele>
        <time>2020-10-01T16:44:21.377Z</time>
      </trkpt>
      <trkpt lat="50.39938" lon="3.45507">
        <ele>24.196805</ele>
        <time>2020-10-01T16:44:33.705Z</time>
      </trkpt>
      <trkpt lat="50.39966" lon="3.45586">
        <ele>24.123781</ele>
        <time>2020-10-01T16:44:42.261Z</time>
      </trkpt>
      <trkpt lat="50.40006" lon="3.45634">
        <ele>24.169071</ele>
        <time>2020-10-01T16:44:50.493Z</time>
      </trkpt>
      <trkpt lat="50.40157" lon="3.45763">
        <ele>24.080169</ele>
        <time>2020-10-01T16:45:17.194Z</time>
      </trkpt>
      <trkpt lat="50.40191" lon="3.45789">
        <ele>24.009919</ele>
        <time>2020-10-01T16:45:22.424Z</time>
      </trkpt>
      <trkpt lat="50.4022" lon="3.45808">
        <ele>23.953298</ele>
        <time>2020-10-01T16:45:26.568Z</time>
      </trkpt>
      <trkpt lat="50.40233" lon="3.45814">
        <ele>23.928618</ele>
        <time>2020-10-01T16:45:28.441Z</time>
      </trkpt>
      <trkpt lat="50.40256" lon="3.45824">
        <ele>23.801835</ele>
        <time>2020-10-01T16:45:31.481Z</time>
      </trkpt>
      <trkpt lat="50.40261" lon="3.45828">
        <ele>23.767292</ele>
        <time>2020-10-01T16:45:32.166Z</time>
      </trkpt>
      <trkpt lat="50.40264" lon="3.45833">
        <ele>23.735752</ele>
        <time>2020-10-01T16:45:32.793Z</time>
      </trkpt>
      <trkpt lat="50.40267" lon="3.4584">
        <ele>23.703035</ele>
        <time>2020-10-01T16:45:33.449Z</time>
      </trkpt>
      <trkpt lat="50.40268" lon="3.45856">
        <ele>23.631566</ele>
        <time>2020-10-01T16:45:34.759Z</time>
      </trkpt>
      <trkpt lat="50.40248" lon="3.45929">
        <ele>23.295146</ele>
        <time>2020-10-01T16:45:40.998Z</time>
      </trkpt>
      <trkpt lat="50.40244" lon="3.45941">
        <ele>23.239632</ele>
        <time>2020-10-01T16:45:42.108Z</time>
      </trkpt>
      <trkpt lat="50.40204" lon="3.46078">
        <ele>22.557072</ele>
        <time>2020-10-01T16:45:54.664Z</time>
      </trkpt>
      <trkpt lat="50.40202" lon="3.4609">
        <ele>22.488091</ele>
        <time>2020-10-01T16:45:55.723Z</time>
      </trkpt>
      <trkpt lat="50.402" lon="3.4611">
        <ele>22.370306</ele>
        <time>2020-10-01T16:45:57.534Z</time>
      </trkpt>
      <trkpt lat="50.40201" lon="3.46117">
        <ele>22.332087</ele>
        <time>2020-10-01T16:45:58.061Z</time>
      </trkpt>
      <trkpt lat="50.40211" lon="3.4611">
        <ele>22.232486</ele>
        <time>2020-10-01T16:45:59.504Z</time>
      </trkpt>
      <trkpt lat="50.40222" lon="3.46102">
        <ele>22.125932</ele>
        <time>2020-10-01T16:46:01.106Z</time>
      </trkpt>
      <trkpt lat="50.40268" lon="3.46071">
        <ele>21.682702</ele>
        <time>2020-10-01T16:46:07.287Z</time>
      </trkpt>
      <trkpt lat="50.40291" lon="3.46055">
        <ele>21.456516</ele>
        <time>2020-10-01T16:46:10.399Z</time>
      </trkpt>
      <trkpt lat="50.40333" lon="3.46026">
        <ele>21.034076</ele>
        <time>2020-10-01T16:46:15.821Z</time>
      </trkpt>
      <trkpt lat="50.40447" lon="3.45948">
        <ele>19.707474</ele>
        <time>2020-10-01T16:46:30.717Z</time>
      </trkpt>
      <trkpt lat="50.40456" lon="3.45941">
        <ele>19.595367</ele>
        <time>2020-10-01T16:46:31.893Z</time>
      </trkpt>
      <trkpt lat="50.40509" lon="3.45903">
        <ele>19.035951</ele>
        <time>2020-10-01T16:46:39.248Z</time>
      </trkpt>
      <trkpt lat="50.4053" lon="3.45888">
        <ele>18.863508</ele>
        <time>2020-10-01T16:46:42.070Z</time>
      </trkpt>
      <trkpt lat="50.40583" lon="3.45852">
        <ele>18.43293</ele>
        <time>2020-10-01T16:46:49.361Z</time>
      </trkpt>
      <trkpt lat="50.4062" lon="3.45827">
        <ele>18.129788</ele>
        <time>2020-10-01T16:46:54.693Z</time>
      </trkpt>
      <trkpt lat="50.40622" lon="3.45825">
        <ele>18.109344</ele>
        <time>2020-10-01T16:46:55.059Z</time>
      </trkpt>
      <trkpt lat="50.40661" lon="3.45799">
        <ele>17.812096</ele>
        <time>2020-10-01T16:47:00.432Z</time>
      </trkpt>
      <trkpt lat="50.40701" lon="3.45771">
        <ele>17.617586</ele>
        <time>2020-10-01T16:47:06.023Z</time>
      </trkpt>
      <trkpt lat="50.40742" lon="3.45743">
        <ele>17.420531</ele>
        <time>2020-10-01T16:47:11.901Z</time>
      </trkpt>
      <trkpt lat="50.40751" lon="3.45737">
        <ele>17.375121</ele>
        <time>2020-10-01T16:47:13.229Z</time>
      </trkpt>
      <trkpt lat="50.40779" lon="3.45718">
        <ele>17.242999</ele>
        <time>2020-10-01T16:47:17.246Z</time>
      </trkpt>
      <trkpt lat="50.40797" lon="3.45705">
        <ele>17.154547</ele>
        <time>2020-10-01T16:47:19.910Z</time>
      </trkpt>
      <trkpt lat="50.40804" lon="3.45699">
        <ele>17.11838</ele>
        <time>2020-10-01T16:47:21.138Z</time>
      </trkpt>
      <trkpt lat="50.40834" lon="3.45679">
        <ele>17.096166</ele>
        <time>2020-10-01T16:47:25.871Z</time>
      </trkpt>
      <trkpt lat="50.40851" lon="3.45667">
        <ele>17.162577</ele>
        <time>2020-10-01T16:47:28.743Z</time>
      </trkpt>
      <trkpt lat="50.40889" lon="3.4564">
        <ele>17.306846</ele>
        <time>2020-10-01T16:47:35.152Z</time>
      </trkpt>
      <trkpt lat="50.41087" lon="3.45502">
        <ele>18.14998</ele>
        <time>2020-10-01T16:48:12.636Z</time>
      </trkpt>
      <trkpt lat="50.41188" lon="3.45434">
        <ele>18.533598</ele>
        <time>2020-10-01T16:48:29.324Z</time>
      </trkpt>
      <trkpt lat="50.412" lon="3.45426">
        <ele>18.564119</ele>
        <time>2020-10-01T16:48:31.177Z</time>
      </trkpt>
      <trkpt lat="50.41203" lon="3.45424">
        <ele>18.571468</ele>
        <time>2020-10-01T16:48:31.599Z</time>
      </trkpt>
      <trkpt lat="50.4138" lon="3.45305">
        <ele>19.732116</ele>
        <time>2020-10-01T16:49:02.798Z</time>
      </trkpt>
      <trkpt lat="50.41403" lon="3.45338">
        <ele>20.116887</ele>
        <time>2020-10-01T16:49:09.473Z</time>
      </trkpt>
      <trkpt lat="50.41424" lon="3.45398">
        <ele>20.656194</ele>
        <time>2020-10-01T16:49:19.081Z</time>
      </trkpt>
      <trkpt lat="50.41431" lon="3.4542">
        <ele>20.848877</ele>
        <time>2020-10-01T16:49:22.837Z</time>
      </trkpt>
      <trkpt lat="50.41461" lon="3.45508">
        <ele>21.520768</ele>
        <time>2020-10-01T16:49:37.670Z</time>
      </trkpt>
      <trkpt lat="50.41741" lon="3.46344">
        <ele>27.215394</ele>
        <time>2020-10-01T16:51:27.827Z</time>
      </trkpt>
      <trkpt lat="50.41764" lon="3.46377">
        <ele>27.459323</ele>
        <time>2020-10-01T16:51:32.715Z</time>
      </trkpt>
      <trkpt lat="50.41941" lon="3.46537">
        <ele>29.821489</ele>
        <time>2020-10-01T16:52:11.318Z</time>
      </trkpt>
      <trkpt lat="50.4206" lon="3.46644">
        <ele>32.143777</ele>
        <time>2020-10-01T16:52:45.110Z</time>
      </trkpt>
      <trkpt lat="50.42084" lon="3.46667">
        <ele>32.642946</ele>
        <time>2020-10-01T16:52:52.083Z</time>
      </trkpt>
      <trkpt lat="50.42395" lon="3.46951">
        <ele>33.159749</ele>
        <time>2020-10-01T16:53:45.377Z</time>
      </trkpt>
      <trkpt lat="50.42405" lon="3.46957">
        <ele>33.142087</ele>
        <time>2020-10-01T16:53:46.749Z</time>
      </trkpt>
      <trkpt lat="50.4242" lon="3.46963">
        <ele>33.116555</ele>
        <time>2020-10-01T16:53:48.590Z</time>
      </trkpt>
      <trkpt lat="50.43113" lon="3.47182">
        <ele>30.236157</ele>
        <time>2020-10-01T16:55:23.165Z</time>
      </trkpt>
      <trkpt lat="50.43126" lon="3.47189">
        <ele>30.203623</ele>
        <time>2020-10-01T16:55:25.291Z</time>
      </trkpt>
      <trkpt lat="50.43136" lon="3.47204">
        <ele>30.232674</ele>
        <time>2020-10-01T16:55:28.057Z</time>
      </trkpt>
      <trkpt lat="50.43163" lon="3.47279">
        <ele>30.446074</ele>
        <time>2020-10-01T16:55:37.749Z</time>
      </trkpt>
      <trkpt lat="50.43184" lon="3.47597">
        <ele>30.403913</ele>
        <time>2020-10-01T16:56:10.821Z</time>
      </trkpt>
      <trkpt lat="50.43218" lon="3.47803">
        <ele>29.293504</ele>
        <time>2020-10-01T16:56:26.639Z</time>
      </trkpt>
      <trkpt lat="50.4324" lon="3.47903">
        <ele>28.369829</ele>
        <time>2020-10-01T16:56:34.213Z</time>
      </trkpt>
      <trkpt lat="50.43251" lon="3.48065">
        <ele>27.320336</ele>
        <time>2020-10-01T16:56:46.877Z</time>
      </trkpt>
      <trkpt lat="50.43255" lon="3.4808">
        <ele>27.285628</ele>
        <time>2020-10-01T16:56:48.172Z</time>
      </trkpt>
      <trkpt lat="50.43262" lon="3.48091">
        <ele>27.255586</ele>
        <time>2020-10-01T16:56:49.458Z</time>
      </trkpt>
      <trkpt lat="50.43267" lon="3.48097">
        <ele>27.234904</ele>
        <time>2020-10-01T16:56:50.278Z</time>
      </trkpt>
      <trkpt lat="50.43271" lon="3.481">
        <ele>27.218284</ele>
        <time>2020-10-01T16:56:51.036Z</time>
      </trkpt>
      <trkpt lat="50.43281" lon="3.48105">
        <ele>27.183221</ele>
        <time>2020-10-01T16:56:52.445Z</time>
      </trkpt>
      <trkpt lat="50.43301" lon="3.48107">
        <ele>27.11774</ele>
        <time>2020-10-01T16:56:55.213Z</time>
      </trkpt>
      <trkpt lat="50.43654" lon="3.48056">
        <ele>26.584318</ele>
        <time>2020-10-01T16:57:48.514Z</time>
      </trkpt>
      <trkpt lat="50.44124" lon="3.4799">
        <ele>23.252832</ele>
        <time>2020-10-01T16:58:47.517Z</time>
      </trkpt>
      <trkpt lat="50.44287" lon="3.47965">
        <ele>23.342662</ele>
        <time>2020-10-01T16:59:13.331Z</time>
      </trkpt>
      <trkpt lat="50.44293" lon="3.47958">
        <ele>23.37187</ele>
        <time>2020-10-01T16:59:14.721Z</time>
      </trkpt>
      <trkpt lat="50.44288" lon="3.4798">
        <ele>23.432356</ele>
        <time>2020-10-01T16:59:17.839Z</time>
      </trkpt>
      <trkpt lat="50.4428" lon="3.48033">
        <ele>23.571125</ele>
        <time>2020-10-01T16:59:24.974Z</time>
      </trkpt>
      <trkpt lat="50.44221" lon="3.48321">
        <ele>24.797843</ele>
        <time>2020-10-01T17:00:07.647Z</time>
      </trkpt>
      <trkpt lat="50.44219" lon="3.48334">
        <ele>24.880142</ele>
        <time>2020-10-01T17:00:09.354Z</time>
      </trkpt>
      <trkpt lat="50.44214" lon="3.48358">
        <ele>25.037318</ele>
        <time>2020-10-01T17:00:13.894Z</time>
      </trkpt>
      <trkpt lat="50.44139" lon="3.48739">
        <ele>28.270111</ele>
        <time>2020-10-01T17:01:19.895Z</time>
      </trkpt>
      <trkpt lat="50.44068" lon="3.491">
        <ele>30.930494</ele>
        <time>2020-10-01T17:02:21.201Z</time>
      </trkpt>
      <trkpt lat="50.44067" lon="3.49104">
        <ele>30.943913</ele>
        <time>2020-10-01T17:02:21.845Z</time>
      </trkpt>
      <trkpt lat="50.44012" lon="3.49376">
        <ele>31.391437</ele>
        <time>2020-10-01T17:02:59.296Z</time>
      </trkpt>
      <trkpt lat="50.44009" lon="3.49387">
        <ele>31.372753</ele>
        <time>2020-10-01T17:03:00.630Z</time>
      </trkpt>
      <trkpt lat="50.43983" lon="3.49526">
        <ele>31.141642</ele>
        <time>2020-10-01T17:03:17.976Z</time>
      </trkpt>
      <trkpt lat="50.43801" lon="3.50431">
        <ele>29.223074</ele>
        <time>2020-10-01T17:05:11.356Z</time>
      </trkpt>
      <trkpt lat="50.43794" lon="3.50441">
        <ele>29.322962</ele>
        <time>2020-10-01T17:05:13.603Z</time>
      </trkpt>
      <trkpt lat="50.43703" lon="3.50602">
        <ele>30.933732</ele>
        <time>2020-10-01T17:05:50.380Z</time>
      </trkpt>
      <trkpt lat="50.43687" lon="3.50623">
        <ele>31.350952</ele>
        <time>2020-10-01T17:05:56.579Z</time>
      </trkpt>
      <trkpt lat="50.43687" lon="3.50643">
        <ele>31.604776</ele>
        <time>2020-10-01T17:06:00.408Z</time>
      </trkpt>
      <trkpt lat="50.4393" lon="3.51255">
        <ele>40.236963</ele>
        <time>2020-10-01T17:08:09.692Z</time>
      </trkpt>
      <trkpt lat="50.442" lon="3.51942">
        <ele>44.665617</ele>
        <time>2020-10-01T17:10:07.427Z</time>
      </trkpt>
      <trkpt lat="50.44201" lon="3.5195">
        <ele>44.725016</ele>
        <time>2020-10-01T17:10:08.714Z</time>
      </trkpt>
      <trkpt lat="50.44202" lon="3.51953">
        <ele>44.747075</ele>
        <time>2020-10-01T17:10:09.892Z</time>
      </trkpt>
      <trkpt lat="50.44192" lon="3.51993">
        <ele>45.073933</ele>
        <time>2020-10-01T17:10:17.110Z</time>
      </trkpt>
      <trkpt lat="50.44116" lon="3.5209">
        <ele>46.78647</ele>
        <time>2020-10-01T17:10:45.946Z</time>
      </trkpt>
      <trkpt lat="50.44105" lon="3.52127">
        <ele>47.292832</ele>
        <time>2020-10-01T17:10:54.118Z</time>
      </trkpt>
      <trkpt lat="50.44124" lon="3.52302">
        <ele>48.897784</ele>
        <time>2020-10-01T17:11:24.315Z</time>
      </trkpt>
      <trkpt lat="50.44141" lon="3.52456">
        <ele>49.04599</ele>
        <time>2020-10-01T17:11:45.475Z</time>
      </trkpt>
      <trkpt lat="50.44147" lon="3.52494">
        <ele>49.083524</ele>
        <time>2020-10-01T17:11:50.067Z</time>
      </trkpt>
      <trkpt lat="50.44451" lon="3.52707">
        <ele>44.711362</ele>
        <time>2020-10-01T17:12:45.285Z</time>
      </trkpt>
      <trkpt lat="50.44554" lon="3.52786">
        <ele>42.390709</ele>
        <time>2020-10-01T17:13:03.855Z</time>
      </trkpt>
      <trkpt lat="50.44573" lon="3.52796">
        <ele>41.92025</ele>
        <time>2020-10-01T17:13:06.859Z</time>
      </trkpt>
      <trkpt lat="50.44581" lon="3.52801">
        <ele>41.70001</ele>
        <time>2020-10-01T17:13:08.364Z</time>
      </trkpt>
      <trkpt lat="50.44596" lon="3.528">
        <ele>41.353012</ele>
        <time>2020-10-01T17:13:10.686Z</time>
      </trkpt>
      <trkpt lat="50.44682" lon="3.52799">
        <ele>39.139147</ele>
        <time>2020-10-01T17:13:23.155Z</time>
      </trkpt>
      <trkpt lat="50.44743" lon="3.52787">
        <ele>37.161605</ele>
        <time>2020-10-01T17:13:32.065Z</time>
      </trkpt>
      <trkpt lat="50.44757" lon="3.5278">
        <ele>36.688489</ele>
        <time>2020-10-01T17:13:34.070Z</time>
      </trkpt>
      <trkpt lat="50.44784" lon="3.52768">
        <ele>35.781884</ele>
        <time>2020-10-01T17:13:38.132Z</time>
      </trkpt>
      <trkpt lat="50.44833" lon="3.52736">
        <ele>34.065081</ele>
        <time>2020-10-01T17:13:45.911Z</time>
      </trkpt>
      <trkpt lat="50.44875" lon="3.52706">
        <ele>32.87347</ele>
        <time>2020-10-01T17:13:52.875Z</time>
      </trkpt>
      <trkpt lat="50.4498" lon="3.52634">
        <ele>30.112652</ele>
        <time>2020-10-01T17:14:10.672Z</time>
      </trkpt>
      <trkpt lat="50.45016" lon="3.52608">
        <ele>29.050031</ele>
        <time>2020-10-01T17:14:17.106Z</time>
      </trkpt>
      <trkpt lat="50.45056" lon="3.52576">
        <ele>27.66283</ele>
        <time>2020-10-01T17:14:23.449Z</time>
      </trkpt>
      <trkpt lat="50.45073" lon="3.52554">
        <ele>26.959728</ele>
        <time>2020-10-01T17:14:26.816Z</time>
      </trkpt>
      <trkpt lat="50.45121" lon="3.52461">
        <ele>24.55611</ele>
        <time>2020-10-01T17:14:37.773Z</time>
      </trkpt>
      <trkpt lat="50.45125" lon="3.52455">
        <ele>24.392385</ele>
        <time>2020-10-01T17:14:38.437Z</time>
      </trkpt>
      <trkpt lat="50.45145" lon="3.52424">
        <ele>23.611589</ele>
        <time>2020-10-01T17:14:42.691Z</time>
      </trkpt>
      <trkpt lat="50.45198" lon="3.52351">
        <ele>22.170878</ele>
        <time>2020-10-01T17:14:53.097Z</time>
      </trkpt>
      <trkpt lat="50.45268" lon="3.52254">
        <ele>20.259747</ele>
        <time>2020-10-01T17:15:08.102Z</time>
      </trkpt>
      <trkpt lat="50.45298" lon="3.5221">
        <ele>20.368332</ele>
        <time>2020-10-01T17:15:16.514Z</time>
      </trkpt>
      <trkpt lat="50.45404" lon="3.52042">
        <ele>21.425486</ele>
        <time>2020-10-01T17:15:54.036Z</time>
      </trkpt>
      <trkpt lat="50.45429" lon="3.52011">
        <ele>21.744577</ele>
        <time>2020-10-01T17:16:02.076Z</time>
      </trkpt>
      <trkpt lat="50.4543" lon="3.52016">
        <ele>21.780429</ele>
        <time>2020-10-01T17:16:03.078Z</time>
      </trkpt>
      <trkpt lat="50.45456" lon="3.52014">
        <ele>22.038888</ele>
        <time>2020-10-01T17:16:09.513Z</time>
      </trkpt>
      <trkpt lat="50.45526" lon="3.52222">
        <ele>23.18587</ele>
        <time>2020-10-01T17:16:37.248Z</time>
      </trkpt>
      <trkpt lat="50.45541" lon="3.52255">
        <ele>23.187153</ele>
        <time>2020-10-01T17:16:41.307Z</time>
      </trkpt>
      <trkpt lat="50.45546" lon="3.52265">
        <ele>23.187565</ele>
        <time>2020-10-01T17:16:42.527Z</time>
      </trkpt>
      <trkpt lat="50.45618" lon="3.52349">
        <ele>23.191947</ele>
        <time>2020-10-01T17:16:54.867Z</time>
      </trkpt>
      <trkpt lat="50.45628" lon="3.52367">
        <ele>23.192715</ele>
        <time>2020-10-01T17:16:56.904Z</time>
      </trkpt>
      <trkpt lat="50.45648" lon="3.52404">
        <ele>22.954069</ele>
        <time>2020-10-01T17:17:00.918Z</time>
      </trkpt>
      <trkpt lat="50.45651" lon="3.52417">
        <ele>22.876235</ele>
        <time>2020-10-01T17:17:01.991Z</time>
      </trkpt>
      <trkpt lat="50.45655" lon="3.52443">
        <ele>22.720332</ele>
        <time>2020-10-01T17:17:04.168Z</time>
      </trkpt>
      <trkpt lat="50.45668" lon="3.52446">
        <ele>22.601426</ele>
        <time>2020-10-01T17:17:05.774Z</time>
      </trkpt>
      <trkpt lat="50.45677" lon="3.52459">
        <ele>22.490112</ele>
        <time>2020-10-01T17:17:07.302Z</time>
      </trkpt>
      <trkpt lat="50.45717" lon="3.52524">
        <ele>21.962575</ele>
        <time>2020-10-01T17:17:14.323Z</time>
      </trkpt>
      <trkpt lat="50.45747" lon="3.52559">
        <ele>21.621159</ele>
        <time>2020-10-01T17:17:18.743Z</time>
      </trkpt>
      <trkpt lat="50.45942" lon="3.52731">
        <ele>19.382237</ele>
        <time>2020-10-01T17:17:45.955Z</time>
      </trkpt>
      <trkpt lat="50.45992" lon="3.52777">
        <ele>19.006135</ele>
        <time>2020-10-01T17:17:53.263Z</time>
      </trkpt>
      <trkpt lat="50.46006" lon="3.52747">
        <ele>18.856217</ele>
        <time>2020-10-01T17:17:56.293Z</time>
      </trkpt>
      <trkpt lat="50.46036" lon="3.52652">
        <ele>18.45281</ele>
        <time>2020-10-01T17:18:05.430Z</time>
      </trkpt>
      <trkpt lat="50.46044" lon="3.52616">
        <ele>18.484125</ele>
        <time>2020-10-01T17:18:08.688Z</time>
      </trkpt>
      <trkpt lat="50.4609" lon="3.52315">
        <ele>18.830237</ele>
        <time>2020-10-01T17:18:40.048Z</time>
      </trkpt>
      <trkpt lat="50.46093" lon="3.52304">
        <ele>18.854632</ele>
        <time>2020-10-01T17:18:41.285Z</time>
      </trkpt>
      <trkpt lat="50.46103" lon="3.52267">
        <ele>18.935554</ele>
        <time>2020-10-01T17:18:45.612Z</time>
      </trkpt>
      <trkpt lat="50.46125" lon="3.52213">
        <ele>19.066444</ele>
        <time>2020-10-01T17:18:52.330Z</time>
      </trkpt>
      <trkpt lat="50.46142" lon="3.52179">
        <ele>19.152964</ele>
        <time>2020-10-01T17:18:56.894Z</time>
      </trkpt>
      <trkpt lat="50.46192" lon="3.52082">
        <ele>19.258264</ele>
        <time>2020-10-01T17:19:09.620Z</time>
      </trkpt>
      <trkpt lat="50.46227" lon="3.52002">
        <ele>19.264192</ele>
        <time>2020-10-01T17:19:18.760Z</time>
      </trkpt>
      <trkpt lat="50.46277" lon="3.51833">
        <ele>19.139234</ele>
        <time>2020-10-01T17:19:35.439Z</time>
      </trkpt>
      <trkpt lat="50.46343" lon="3.51672">
        <ele>18.802278</ele>
        <time>2020-10-01T17:19:52.243Z</time>
      </trkpt>
      <trkpt lat="50.46353" lon="3.51643">
        <ele>18.738998</ele>
        <time>2020-10-01T17:19:55.278Z</time>
      </trkpt>
      <trkpt lat="50.46372" lon="3.51656">
        <ele>18.67423</ele>
        <time>2020-10-01T17:19:58.048Z</time>
      </trkpt>
      <trkpt lat="50.46439" lon="3.5173">
        <ele>18.415064</ele>
        <time>2020-10-01T17:20:09.488Z</time>
      </trkpt>
      <trkpt lat="50.46568" lon="3.51907">
        <ele>17.958432</ele>
        <time>2020-10-01T17:20:33.064Z</time>
      </trkpt>
      <trkpt lat="50.46599" lon="3.5194">
        <ele>17.869172</ele>
        <time>2020-10-01T17:20:38.326Z</time>
      </trkpt>
      <trkpt lat="50.46702" lon="3.52009">
        <ele>17.689118</ele>
        <time>2020-10-01T17:20:54.421Z</time>
      </trkpt>
      <trkpt lat="50.46795" lon="3.52081">
        <ele>17.561797</ele>
        <time>2020-10-01T17:21:09.662Z</time>
      </trkpt>
      <trkpt lat="50.46859" lon="3.52136">
        <ele>17.724516</ele>
        <time>2020-10-01T17:21:19.633Z</time>
      </trkpt>
      <trkpt lat="50.46903" lon="3.52179">
        <ele>17.841905</ele>
        <time>2020-10-01T17:21:27.535Z</time>
      </trkpt>
      <trkpt lat="50.46961" lon="3.52246">
        <ele>18.210052</ele>
        <time>2020-10-01T17:21:40.623Z</time>
      </trkpt>
      <trkpt lat="50.46985" lon="3.52273">
        <ele>18.650172</ele>
        <time>2020-10-01T17:21:46.379Z</time>
      </trkpt>
      <trkpt lat="50.46989" lon="3.52278">
        <ele>18.720688</ele>
        <time>2020-10-01T17:21:47.258Z</time>
      </trkpt>
      <trkpt lat="50.47003" lon="3.52294">
        <ele>18.978022</ele>
        <time>2020-10-01T17:21:50.743Z</time>
      </trkpt>
      <trkpt lat="50.47043" lon="3.5234">
        <ele>19.725665</ele>
        <time>2020-10-01T17:22:01.231Z</time>
      </trkpt>
      <trkpt lat="50.47066" lon="3.52375">
        <ele>20.200371</ele>
        <time>2020-10-01T17:22:08.181Z</time>
      </trkpt>
      <trkpt lat="50.47084" lon="3.52412">
        <ele>20.645486</ele>
        <time>2020-10-01T17:22:15.162Z</time>
      </trkpt>
      <trkpt lat="50.47135" lon="3.52477">
        <ele>21.543949</ele>
        <time>2020-10-01T17:22:30.286Z</time>
      </trkpt>
      <trkpt lat="50.47173" lon="3.5254">
        <ele>22.320837</ele>
        <time>2020-10-01T17:22:41.841Z</time>
      </trkpt>
      <trkpt lat="50.47209" lon="3.52597">
        <ele>23.024651</ele>
        <time>2020-10-01T17:22:51.352Z</time>
      </trkpt>
      <trkpt lat="50.47247" lon="3.52657">
        <ele>23.089288</ele>
        <time>2020-10-01T17:22:59.824Z</time>
      </trkpt>
      <trkpt lat="50.47262" lon="3.52676">
        <ele>23.066857</ele>
        <time>2020-10-01T17:23:02.780Z</time>
      </trkpt>
      <trkpt lat="50.47336" lon="3.5257">
        <ele>22.949365</ele>
        <time>2020-10-01T17:23:16.703Z</time>
      </trkpt>
      <trkpt lat="50.47366" lon="3.52526">
        <ele>22.699075</ele>
        <time>2020-10-01T17:23:22.026Z</time>
      </trkpt>
      <trkpt lat="50.47392" lon="3.52485">
        <ele>22.363943</ele>
        <time>2020-10-01T17:23:26.642Z</time>
      </trkpt>
      <trkpt lat="50.47409" lon="3.52466">
        <ele>22.178503</ele>
        <time>2020-10-01T17:23:29.195Z</time>
      </trkpt>
      <trkpt lat="50.47441" lon="3.52435">
        <ele>21.845553</ele>
        <time>2020-10-01T17:23:33.625Z</time>
      </trkpt>
      <trkpt lat="50.4747" lon="3.52408">
        <ele>21.540786</ele>
        <time>2020-10-01T17:23:37.694Z</time>
      </trkpt>
      <trkpt lat="50.47487" lon="3.52388">
        <ele>21.347997</ele>
        <time>2020-10-01T17:23:40.336Z</time>
      </trkpt>
      <trkpt lat="50.4754" lon="3.52313">
        <ele>20.838048</ele>
        <time>2020-10-01T17:23:49.233Z</time>
      </trkpt>
      <trkpt lat="50.47543" lon="3.52294">
        <ele>20.748946</ele>
        <time>2020-10-01T17:23:50.781Z</time>
      </trkpt>
      <trkpt lat="50.47556" lon="3.52303">
        <ele>20.648916</ele>
        <time>2020-10-01T17:23:52.604Z</time>
      </trkpt>
      <trkpt lat="50.476" lon="3.52316">
        <ele>20.337689</ele>
        <time>2020-10-01T17:23:58.356Z</time>
      </trkpt>
      <trkpt lat="50.47614" lon="3.52314">
        <ele>20.237078</ele>
        <time>2020-10-01T17:24:00.188Z</time>
      </trkpt>
      <trkpt lat="50.47654" lon="3.52277">
        <ele>19.998697</ele>
        <time>2020-10-01T17:24:06.507Z</time>
      </trkpt>
      <trkpt lat="50.47693" lon="3.52217">
        <ele>19.866914</ele>
        <time>2020-10-01T17:24:14.124Z</time>
      </trkpt>
      <trkpt lat="50.47718" lon="3.52168">
        <ele>19.77148</ele>
        <time>2020-10-01T17:24:19.844Z</time>
      </trkpt>
      <trkpt lat="50.4773" lon="3.52141">
        <ele>19.720643</ele>
        <time>2020-10-01T17:24:22.862Z</time>
      </trkpt>
      <trkpt lat="50.47755" lon="3.52073">
        <ele>19.594608</ele>
        <time>2020-10-01T17:24:29.943Z</time>
      </trkpt>
      <trkpt lat="50.47758" lon="3.52039">
        <ele>19.515929</ele>
        <time>2020-10-01T17:24:33.011Z</time>
      </trkpt>
      <trkpt lat="50.47766" lon="3.51925">
        <ele>19.250286</ele>
        <time>2020-10-01T17:24:43.125Z</time>
      </trkpt>
      <trkpt lat="50.47782" lon="3.51698">
        <ele>18.627847</ele>
        <time>2020-10-01T17:25:02.298Z</time>
      </trkpt>
      <trkpt lat="50.47783" lon="3.51663">
        <ele>18.512762</ele>
        <time>2020-10-01T17:25:05.338Z</time>
      </trkpt>
      <trkpt lat="50.47784" lon="3.5165">
        <ele>18.471088</ele>
        <time>2020-10-01T17:25:06.449Z</time>
      </trkpt>
      <trkpt lat="50.47784" lon="3.51643">
        <ele>18.448376</ele>
        <time>2020-10-01T17:25:07.046Z</time>
      </trkpt>
      <trkpt lat="50.47785" lon="3.51628">
        <ele>18.39913</ele>
        <time>2020-10-01T17:25:08.340Z</time>
      </trkpt>
      <trkpt lat="50.47824" lon="3.51488">
        <ele>17.904251</ele>
        <time>2020-10-01T17:25:21.342Z</time>
      </trkpt>
      <trkpt lat="50.47858" lon="3.51324">
        <ele>17.352019</ele>
        <time>2020-10-01T17:25:35.909Z</time>
      </trkpt>
      <trkpt lat="50.47952" lon="3.51044">
        <ele>16.189809</ele>
        <time>2020-10-01T17:26:02.229Z</time>
      </trkpt>
      <trkpt lat="50.47986" lon="3.50967">
        <ele>15.854727</ele>
        <time>2020-10-01T17:26:10.087Z</time>
      </trkpt>
      <trkpt lat="50.48047" lon="3.50871">
        <ele>15.388256</ele>
        <time>2020-10-01T17:26:21.490Z</time>
      </trkpt>
      <trkpt lat="50.48087" lon="3.50718">
        <ele>14.898854</ele>
        <time>2020-10-01T17:26:35.417Z</time>
      </trkpt>
      <trkpt lat="50.48134" lon="3.50632">
        <ele>14.626705</ele>
        <time>2020-10-01T17:26:45.114Z</time>
      </trkpt>
      <trkpt lat="50.48156" lon="3.50601">
        <ele>14.51393</ele>
        <time>2020-10-01T17:26:49.180Z</time>
      </trkpt>
      <trkpt lat="50.48195" lon="3.50547">
        <ele>14.430539</ele>
        <time>2020-10-01T17:26:56.488Z</time>
      </trkpt>
      <trkpt lat="50.48334" lon="3.50262">
        <ele>14.873911</ele>
        <time>2020-10-01T17:27:31.857Z</time>
      </trkpt>
      <trkpt lat="50.48334" lon="3.50155">
        <ele>15.152043</ele>
        <time>2020-10-01T17:27:43.456Z</time>
      </trkpt>
      <trkpt lat="50.48314" lon="3.50065">
        <ele>15.424009</ele>
        <time>2020-10-01T17:27:54.303Z</time>
      </trkpt>
      <trkpt lat="50.48317" lon="3.50036">
        <ele>15.51916</ele>
        <time>2020-10-01T17:27:57.682Z</time>
      </trkpt>
      <trkpt lat="50.48417" lon="3.49873">
        <ele>16.221696</ele>
        <time>2020-10-01T17:28:21.922Z</time>
      </trkpt>
      <trkpt lat="50.48456" lon="3.4981">
        <ele>16.132904</ele>
        <time>2020-10-01T17:28:30.027Z</time>
      </trkpt>
      <trkpt lat="50.48464" lon="3.49803">
        <ele>16.117944</ele>
        <time>2020-10-01T17:28:31.361Z</time>
      </trkpt>
      <trkpt lat="50.4847" lon="3.498">
        <ele>16.107534</ele>
        <time>2020-10-01T17:28:32.319Z</time>
      </trkpt>
      <trkpt lat="50.48475" lon="3.49799">
        <ele>16.098981</ele>
        <time>2020-10-01T17:28:33.086Z</time>
      </trkpt>
      <trkpt lat="50.48497" lon="3.49796">
        <ele>16.064381</ele>
        <time>2020-10-01T17:28:36.030Z</time>
      </trkpt>
      <trkpt lat="50.4851" lon="3.49792">
        <ele>16.042686</ele>
        <time>2020-10-01T17:28:37.968Z</time>
      </trkpt>
      <trkpt lat="50.48526" lon="3.49777">
        <ele>16.013386</ele>
        <time>2020-10-01T17:28:40.439Z</time>
      </trkpt>
      <trkpt lat="50.4857" lon="3.49704">
        <ele>15.915462</ele>
        <time>2020-10-01T17:28:49.084Z</time>
      </trkpt>
      <trkpt lat="50.48604" lon="3.49668">
        <ele>15.859054</ele>
        <time>2020-10-01T17:28:54.567Z</time>
      </trkpt>
      <trkpt lat="50.48628" lon="3.49654">
        <ele>15.823586</ele>
        <time>2020-10-01T17:28:58.269Z</time>
      </trkpt>
      <trkpt lat="50.48684" lon="3.49642">
        <ele>15.745198</ele>
        <time>2020-10-01T17:29:06.888Z</time>
      </trkpt>
      <trkpt lat="50.48731" lon="3.4961">
        <ele>15.713136</ele>
        <time>2020-10-01T17:29:14.505Z</time>
      </trkpt>
      <trkpt lat="50.48736" lon="3.49611">
        <ele>15.721505</ele>
        <time>2020-10-01T17:29:15.379Z</time>
      </trkpt>
      <trkpt lat="50.48765" lon="3.49649">
        <ele>15.77576</ele>
        <time>2020-10-01T17:29:20.896Z</time>
      </trkpt>
      <trkpt lat="50.48847" lon="3.49688">
        <ele>15.90125</ele>
        <time>2020-10-01T17:29:34.202Z</time>
      </trkpt>
      <trkpt lat="50.48861" lon="3.49706">
        <ele>15.927439</ele>
        <time>2020-10-01T17:29:37.100Z</time>
      </trkpt>
      <trkpt lat="50.4887" lon="3.49728">
        <ele>15.95269</ele>
        <time>2020-10-01T17:29:39.718Z</time>
      </trkpt>
      <trkpt lat="50.48879" lon="3.49766">
        <ele>16.028664</ele>
        <time>2020-10-01T17:29:43.733Z</time>
      </trkpt>
      <trkpt lat="50.48906" lon="3.49893">
        <ele>16.300284</ele>
        <time>2020-10-01T17:29:57.312Z</time>
      </trkpt>
      <trkpt lat="50.48908" lon="3.49897">
        <ele>16.312118</ele>
        <time>2020-10-01T17:29:57.869Z</time>
      </trkpt>
      <trkpt lat="50.48911" lon="3.49902">
        <ele>16.326301</ele>
        <time>2020-10-01T17:29:58.723Z</time>
      </trkpt>
      <trkpt lat="50.48914" lon="3.49904">
        <ele>16.337893</ele>
        <time>2020-10-01T17:29:59.233Z</time>
      </trkpt>
      <trkpt lat="50.48927" lon="3.49907">
        <ele>16.37893</ele>
        <time>2020-10-01T17:30:01.366Z</time>
      </trkpt>
      <trkpt lat="50.48934" lon="3.49909">
        <ele>16.40281</ele>
        <time>2020-10-01T17:30:02.563Z</time>
      </trkpt>
      <trkpt lat="50.4895" lon="3.49913">
        <ele>16.454478</ele>
        <time>2020-10-01T17:30:05.215Z</time>
      </trkpt>
      <trkpt lat="50.48953" lon="3.49914">
        <ele>16.463818</ele>
        <time>2020-10-01T17:30:05.803Z</time>
      </trkpt>
      <trkpt lat="50.49" lon="3.49921">
        <ele>16.532229</ele>
        <time>2020-10-01T17:30:13.578Z</time>
      </trkpt>
      <trkpt lat="50.49082" lon="3.49844">
        <ele>16.536557</ele>
        <time>2020-10-01T17:30:28.227Z</time>
      </trkpt>
      <trkpt lat="50.49094" lon="3.49838">
        <ele>16.53714</ele>
        <time>2020-10-01T17:30:30.017Z</time>
      </trkpt>
      <trkpt lat="50.49191" lon="3.49853">
        <ele>16.376288</ele>
        <time>2020-10-01T17:30:43.077Z</time>
      </trkpt>
      <trkpt lat="50.49196" lon="3.49853">
        <ele>16.358457</ele>
        <time>2020-10-01T17:30:43.810Z</time>
      </trkpt>
      <trkpt lat="50.49201" lon="3.49848">
        <ele>16.340989</ele>
        <time>2020-10-01T17:30:44.576Z</time>
      </trkpt>
      <trkpt lat="50.49208" lon="3.49841">
        <ele>16.313173</ele>
        <time>2020-10-01T17:30:45.688Z</time>
      </trkpt>
      <trkpt lat="50.49282" lon="3.49773">
        <ele>16.041494</ele>
        <time>2020-10-01T17:30:57.611Z</time>
      </trkpt>
      <trkpt lat="50.49284" lon="3.49771">
        <ele>16.033403</ele>
        <time>2020-10-01T17:30:57.890Z</time>
      </trkpt>
      <trkpt lat="50.49288" lon="3.49767">
        <ele>16.017597</ele>
        <time>2020-10-01T17:30:58.571Z</time>
      </trkpt>
      <trkpt lat="50.49308" lon="3.49756">
        <ele>15.981173</ele>
        <time>2020-10-01T17:31:01.589Z</time>
      </trkpt>
      <trkpt lat="50.49327" lon="3.49756">
        <ele>16.032842</ele>
        <time>2020-10-01T17:31:04.127Z</time>
      </trkpt>
      <trkpt lat="50.49356" lon="3.49781">
        <ele>16.125132</ele>
        <time>2020-10-01T17:31:08.969Z</time>
      </trkpt>
      <trkpt lat="50.4937" lon="3.49783">
        <ele>16.165523</ele>
        <time>2020-10-01T17:31:11.356Z</time>
      </trkpt>
      <trkpt lat="50.49442" lon="3.49791">
        <ele>16.366902</ele>
        <time>2020-10-01T17:31:23.403Z</time>
      </trkpt>
      <trkpt lat="50.49496" lon="3.49786">
        <ele>16.546883</ele>
        <time>2020-10-01T17:31:32.862Z</time>
      </trkpt>
      <trkpt lat="50.49546" lon="3.49865">
        <ele>16.853905</ele>
        <time>2020-10-01T17:31:44.957Z</time>
      </trkpt>
      <trkpt lat="50.49552" lon="3.49866">
        <ele>16.87683</ele>
        <time>2020-10-01T17:31:45.958Z</time>
      </trkpt>
      <trkpt lat="50.49561" lon="3.49862">
        <ele>16.920117</ele>
        <time>2020-10-01T17:31:47.653Z</time>
      </trkpt>
      <trkpt lat="50.49674" lon="3.49784">
        <ele>17.141848</ele>
        <time>2020-10-01T17:32:07.169Z</time>
      </trkpt>
      <trkpt lat="50.49786" lon="3.49689">
        <ele>16.856693</ele>
        <time>2020-10-01T17:32:24.492Z</time>
      </trkpt>
      <trkpt lat="50.4984" lon="3.49655">
        <ele>16.675303</ele>
        <time>2020-10-01T17:32:32.174Z</time>
      </trkpt>
      <trkpt lat="50.49868" lon="3.49638">
        <ele>16.579962</ele>
        <time>2020-10-01T17:32:36.117Z</time>
      </trkpt>
      <trkpt lat="50.49872" lon="3.49635">
        <ele>16.568195</ele>
        <time>2020-10-01T17:32:36.634Z</time>
      </trkpt>
      <trkpt lat="50.49885" lon="3.49626">
        <ele>16.520595</ele>
        <time>2020-10-01T17:32:38.628Z</time>
      </trkpt>
      <trkpt lat="50.49891" lon="3.49621">
        <ele>16.501528</ele>
        <time>2020-10-01T17:32:39.382Z</time>
      </trkpt>
      <trkpt lat="50.50056" lon="3.49423">
        <ele>16.298859</ele>
        <time>2020-10-01T17:33:09.860Z</time>
      </trkpt>
      <trkpt lat="50.50184" lon="3.49323">
        <ele>16.434125</ele>
        <time>2020-10-01T17:33:32.334Z</time>
      </trkpt>
      <trkpt lat="50.50191" lon="3.49319">
        <ele>16.443752</ele>
        <time>2020-10-01T17:33:33.591Z</time>
      </trkpt>
      <trkpt lat="50.50197" lon="3.49315">
        <ele>16.452601</ele>
        <time>2020-10-01T17:33:34.583Z</time>
      </trkpt>
      <trkpt lat="50.50222" lon="3.493">
        <ele>16.486326</ele>
        <time>2020-10-01T17:33:38.495Z</time>
      </trkpt>
      <trkpt lat="50.50284" lon="3.49261">
        <ele>16.527582</ele>
        <time>2020-10-01T17:33:48.292Z</time>
      </trkpt>
      <trkpt lat="50.50301" lon="3.49249">
        <ele>16.5202</ele>
        <time>2020-10-01T17:33:51.069Z</time>
      </trkpt>
      <trkpt lat="50.5033" lon="3.49228">
        <ele>16.507491</ele>
        <time>2020-10-01T17:33:55.734Z</time>
      </trkpt>
      <trkpt lat="50.50399" lon="3.49173">
        <ele>16.477187</ele>
        <time>2020-10-01T17:34:06.725Z</time>
      </trkpt>
      <trkpt lat="50.50468" lon="3.49131">
        <ele>16.555648</ele>
        <time>2020-10-01T17:34:17.989Z</time>
      </trkpt>
      <trkpt lat="50.50551" lon="3.4902">
        <ele>16.752475</ele>
        <time>2020-10-01T17:34:35.188Z</time>
      </trkpt>
      <trkpt lat="50.50629" lon="3.48944">
        <ele>17.115111</ele>
        <time>2020-10-01T17:34:50.120Z</time>
      </trkpt>
      <trkpt lat="50.5064" lon="3.48922">
        <ele>17.197885</ele>
        <time>2020-10-01T17:34:53.108Z</time>
      </trkpt>
      <trkpt lat="50.50654" lon="3.48871">
        <ele>17.358738</ele>
        <time>2020-10-01T17:34:59.027Z</time>
      </trkpt>
      <trkpt lat="50.50664" lon="3.48854">
        <ele>17.427208</ele>
        <time>2020-10-01T17:35:01.610Z</time>
      </trkpt>
      <trkpt lat="50.50675" lon="3.48848">
        <ele>17.482494</ele>
        <time>2020-10-01T17:35:03.594Z</time>
      </trkpt>
      <trkpt lat="50.50697" lon="3.48851">
        <ele>17.5813</ele>
        <time>2020-10-01T17:35:07.248Z</time>
      </trkpt>
      <trkpt lat="50.5075" lon="3.48876">
        <ele>18.060576</ele>
        <time>2020-10-01T17:35:16.796Z</time>
      </trkpt>
      <trkpt lat="50.50762" lon="3.48885">
        <ele>18.185413</ele>
        <time>2020-10-01T17:35:19.317Z</time>
      </trkpt>
      <trkpt lat="50.50772" lon="3.48889">
        <ele>18.281708</ele>
        <time>2020-10-01T17:35:21.207Z</time>
      </trkpt>
      <trkpt lat="50.50795" lon="3.48891">
        <ele>18.49692</ele>
        <time>2020-10-01T17:35:25.561Z</time>
      </trkpt>
      <trkpt lat="50.50829" lon="3.48861">
        <ele>18.858339</ele>
        <time>2020-10-01T17:35:32.984Z</time>
      </trkpt>
      <trkpt lat="50.50848" lon="3.48828">
        <ele>19.123016</ele>
        <time>2020-10-01T17:35:38.445Z</time>
      </trkpt>
      <trkpt lat="50.50851" lon="3.48822">
        <ele>19.171978</ele>
        <time>2020-10-01T17:35:39.531Z</time>
      </trkpt>
      <trkpt lat="50.50863" lon="3.48799">
        <ele>19.354404</ele>
        <time>2020-10-01T17:35:43.063Z</time>
      </trkpt>
      <trkpt lat="50.50894" lon="3.48736">
        <ele>19.942514</ele>
        <time>2020-10-01T17:35:53.231Z</time>
      </trkpt>
      <trkpt lat="50.5095" lon="3.4873">
        <ele>20.589601</ele>
        <time>2020-10-01T17:36:04.426Z</time>
      </trkpt>
      <trkpt lat="50.51024" lon="3.4876">
        <ele>21.396145</ele>
        <time>2020-10-01T17:36:19.319Z</time>
      </trkpt>
      <trkpt lat="50.51035" lon="3.48756">
        <ele>21.42221</ele>
        <time>2020-10-01T17:36:21.267Z</time>
      </trkpt>
      <trkpt lat="50.51052" lon="3.48729">
        <ele>21.475851</ele>
        <time>2020-10-01T17:36:25.271Z</time>
      </trkpt>
      <trkpt lat="50.51065" lon="3.48691">
        <ele>21.538142</ele>
        <time>2020-10-01T17:36:29.670Z</time>
      </trkpt>
      <trkpt lat="50.51084" lon="3.48625">
        <ele>21.641179</ele>
        <time>2020-10-01T17:36:36.629Z</time>
      </trkpt>
      <trkpt lat="50.51087" lon="3.48604">
        <ele>21.672169</ele>
        <time>2020-10-01T17:36:38.526Z</time>
      </trkpt>
      <trkpt lat="50.51082" lon="3.48534">
        <ele>21.773024</ele>
        <time>2020-10-01T17:36:45.210Z</time>
      </trkpt>
      <trkpt lat="50.5108" lon="3.48506">
        <ele>21.758069</ele>
        <time>2020-10-01T17:36:47.653Z</time>
      </trkpt>
      <trkpt lat="50.51082" lon="3.4846">
        <ele>21.701204</ele>
        <time>2020-10-01T17:36:51.919Z</time>
      </trkpt>
      <trkpt lat="50.51087" lon="3.48377">
        <ele>21.598812</ele>
        <time>2020-10-01T17:36:58.930Z</time>
      </trkpt>
      <trkpt lat="50.51092" lon="3.48355">
        <ele>21.569631</ele>
        <time>2020-10-01T17:37:01.070Z</time>
      </trkpt>
      <trkpt lat="50.511" lon="3.48334">
        <ele>21.540584</ele>
        <time>2020-10-01T17:37:03.124Z</time>
      </trkpt>
      <trkpt lat="50.5112" lon="3.48278">
        <ele>21.461372</ele>
        <time>2020-10-01T17:37:09.147Z</time>
      </trkpt>
      <trkpt lat="50.5113" lon="3.48251">
        <ele>21.437316</ele>
        <time>2020-10-01T17:37:12.418Z</time>
      </trkpt>
      <trkpt lat="50.51135" lon="3.48237">
        <ele>21.438799</ele>
        <time>2020-10-01T17:37:13.865Z</time>
      </trkpt>
      <trkpt lat="50.51143" lon="3.48169">
        <ele>21.445459</ele>
        <time>2020-10-01T17:37:20.490Z</time>
      </trkpt>
      <trkpt lat="50.51138" lon="3.48111">
        <ele>21.4511</ele>
        <time>2020-10-01T17:37:26.078Z</time>
      </trkpt>
      <trkpt lat="50.51132" lon="3.48019">
        <ele>21.460014</ele>
        <time>2020-10-01T17:37:34.768Z</time>
      </trkpt>
      <trkpt lat="50.51129" lon="3.48001">
        <ele>21.461802</ele>
        <time>2020-10-01T17:37:36.322Z</time>
      </trkpt>
      <trkpt lat="50.51125" lon="3.47964">
        <ele>21.481827</ele>
        <time>2020-10-01T17:37:40.043Z</time>
      </trkpt>
      <trkpt lat="50.51122" lon="3.47856">
        <ele>21.580118</ele>
        <time>2020-10-01T17:37:50.444Z</time>
      </trkpt>
      <trkpt lat="50.51109" lon="3.47824">
        <ele>21.61479</ele>
        <time>2020-10-01T17:37:53.898Z</time>
      </trkpt>
      <trkpt lat="50.5109" lon="3.47798">
        <ele>21.650133</ele>
        <time>2020-10-01T17:37:57.936Z</time>
      </trkpt>
      <trkpt lat="50.51082" lon="3.47786">
        <ele>21.666283</ele>
        <time>2020-10-01T17:37:59.519Z</time>
      </trkpt>
      <trkpt lat="50.5108" lon="3.47774">
        <ele>21.677097</ele>
        <time>2020-10-01T17:38:00.997Z</time>
      </trkpt>
      <trkpt lat="50.51104" lon="3.47687">
        <ele>21.903345</ele>
        <time>2020-10-01T17:38:10.866Z</time>
      </trkpt>
      <trkpt lat="50.51109" lon="3.47654">
        <ele>22.033068</ele>
        <time>2020-10-01T17:38:14.733Z</time>
      </trkpt>
      <trkpt lat="50.5111" lon="3.47622">
        <ele>22.153814</ele>
        <time>2020-10-01T17:38:18.054Z</time>
      </trkpt>
      <trkpt lat="50.51104" lon="3.47596">
        <ele>22.261209</ele>
        <time>2020-10-01T17:38:21.346Z</time>
      </trkpt>
      <trkpt lat="50.51082" lon="3.4755">
        <ele>22.481582</ele>
        <time>2020-10-01T17:38:27.850Z</time>
      </trkpt>
      <trkpt lat="50.51016" lon="3.47475">
        <ele>22.930742</ele>
        <time>2020-10-01T17:38:41.900Z</time>
      </trkpt>
      <trkpt lat="50.51006" lon="3.47445">
        <ele>23.030872</ele>
        <time>2020-10-01T17:38:45.442Z</time>
      </trkpt>
      <trkpt lat="50.51065" lon="3.47278">
        <ele>23.5916</ele>
        <time>2020-10-01T17:39:05.505Z</time>
      </trkpt>
      <trkpt lat="50.51066" lon="3.47262">
        <ele>23.639533</ele>
        <time>2020-10-01T17:39:07.201Z</time>
      </trkpt>
      <trkpt lat="50.51059" lon="3.47247">
        <ele>23.693365</ele>
        <time>2020-10-01T17:39:09.202Z</time>
      </trkpt>
      <trkpt lat="50.51052" lon="3.47236">
        <ele>23.735686</ele>
        <time>2020-10-01T17:39:10.760Z</time>
      </trkpt>
      <trkpt lat="50.50985" lon="3.47169">
        <ele>24.089627</ele>
        <time>2020-10-01T17:39:24.027Z</time>
      </trkpt>
      <trkpt lat="50.50936" lon="3.47116">
        <ele>24.355765</ele>
        <time>2020-10-01T17:39:33.929Z</time>
      </trkpt>
      <trkpt lat="50.50899" lon="3.47062">
        <ele>24.585522</ele>
        <time>2020-10-01T17:39:42.569Z</time>
      </trkpt>
      <trkpt lat="50.50871" lon="3.47017">
        <ele>24.767111</ele>
        <time>2020-10-01T17:39:49.263Z</time>
      </trkpt>
      <trkpt lat="50.5085" lon="3.46978">
        <ele>24.915594</ele>
        <time>2020-10-01T17:39:54.695Z</time>
      </trkpt>
      <trkpt lat="50.5084" lon="3.46941">
        <ele>25.033112</ele>
        <time>2020-10-01T17:39:59.018Z</time>
      </trkpt>
      <trkpt lat="50.50839" lon="3.46894">
        <ele>25.16993</ele>
        <time>2020-10-01T17:40:04.066Z</time>
      </trkpt>
      <trkpt lat="50.50838" lon="3.46879">
        <ele>25.212814</ele>
        <time>2020-10-01T17:40:05.706Z</time>
      </trkpt>
      <trkpt lat="50.50837" lon="3.46857">
        <ele>25.255927</ele>
        <time>2020-10-01T17:40:08.001Z</time>
      </trkpt>
      <trkpt lat="50.50831" lon="3.4684">
        <ele>25.236812</ele>
        <time>2020-10-01T17:40:09.951Z</time>
      </trkpt>
      <trkpt lat="50.50821" lon="3.46826">
        <ele>25.216965</ele>
        <time>2020-10-01T17:40:12.027Z</time>
      </trkpt>
      <trkpt lat="50.50778" lon="3.46766">
        <ele>25.129416</ele>
        <time>2020-10-01T17:40:20.515Z</time>
      </trkpt>
      <trkpt lat="50.50735" lon="3.46707">
        <ele>25.042173</ele>
        <time>2020-10-01T17:40:28.563Z</time>
      </trkpt>
      <trkpt lat="50.50708" lon="3.46672">
        <ele>24.988892</ele>
        <time>2020-10-01T17:40:33.210Z</time>
      </trkpt>
      <trkpt lat="50.507" lon="3.46666">
        <ele>24.909533</ele>
        <time>2020-10-01T17:40:34.313Z</time>
      </trkpt>
      <trkpt lat="50.50681" lon="3.46651">
        <ele>24.698628</ele>
        <time>2020-10-01T17:40:37.015Z</time>
      </trkpt>
      <trkpt lat="50.50523" lon="3.46572">
        <ele>23.193634</ele>
        <time>2020-10-01T17:40:56.926Z</time>
      </trkpt>
      <trkpt lat="50.50452" lon="3.46518">
        <ele>23.193634</ele>
        <time>2020-10-01T17:41:06.558Z</time>
      </trkpt>
      <trkpt lat="50.50405" lon="3.46483">
        <ele>23.193634</ele>
        <time>2020-10-01T17:41:13.118Z</time>
      </trkpt>
      <trkpt lat="50.50379" lon="3.46466">
        <ele>23.193634</ele>
        <time>2020-10-01T17:41:16.758Z</time>
      </trkpt>
    </trkseg>
  </trk>
</gpx>